<?xml version="1.0" encoding="UTF-8" standalone="no" ?>
<gpx xmlns="http://www.topografix.com/GPX/1/1" xmlns:xsi="http://www.w3.org/2001/XMLSchema-instance" xsi:schemaLocation="http://www.topografix.com/GPX/1/1 http://www.topografix.com/GPX/1/1/gpx.xsd" version="1.1" creator="VisuGPX - https://www.visugpx.com">
  <metadata>
    <name>Montagne de Mussan</name>
    <desc><![CDATA[A partir du parking du Passage du Tour (Beauregard-Baret) prendre la piste qui remonte le Ravin des Tourniers. Puis remonter jusqu'au col sans nom (point 742). Prendre à gauche après la clôture le sentier qui monte vers la source de Font Pourcel (nombreuses orchidées au mois de mai). A la source prendre la piste à gauche une centaine de mètres, puis celle à droite au carrefour suivant. La quitter à gauche un peu plus loin (panneau "Pas de la Pierre"). Suivre le sentier qui monte très raide jusqu'au Pas de la Pierre. Là prendre à gauche et remonter la crête vers le nord jusqu'au Pas Pourceau. le descendre et prendre le sentier qui part à gauche en bas du Pré de Cinq Sous. Le quitter à droite un peu plus loin (sentier qui n'est pas sur la carte IGN). Lorsque l'on rejoint un carrefour de pistes prendre celle qui part en face, un peu vers la gauche. Elle se transforme en sentier et rejoint le point 873. Là prendre à droite une ancienne piste très caillouteuse qui ramène vers la piste montant au Col des Marchands. La prendre à gauche pour rejoindre le parking.]]></desc>
  </metadata>
  <trk>
    <name><![CDATA[2017-04-23 16:05:32]]></name>
    <trkseg>
      <trkpt lat="44.99163" lon="5.19885">
        <ele>579.81</ele>
        <time>2017-04-23T07:56:54Z</time>
      </trkpt>
      <trkpt lat="44.99162" lon="5.19885">
        <ele>579.81</ele>
        <time>2017-04-23T07:56:55Z</time>
      </trkpt>
      <trkpt lat="44.99159" lon="5.19881">
        <ele>577.89</ele>
        <time>2017-04-23T07:57:52Z</time>
      </trkpt>
      <trkpt lat="44.99154" lon="5.19873">
        <ele>577.89</ele>
        <time>2017-04-23T07:58:08Z</time>
      </trkpt>
      <trkpt lat="44.99149" lon="5.19857">
        <ele>575.49</ele>
        <time>2017-04-23T07:58:22Z</time>
      </trkpt>
      <trkpt lat="44.99137" lon="5.19863">
        <ele>575.97</ele>
        <time>2017-04-23T07:58:36Z</time>
      </trkpt>
      <trkpt lat="44.99126" lon="5.19864">
        <ele>575.97</ele>
        <time>2017-04-23T07:58:50Z</time>
      </trkpt>
      <trkpt lat="44.99125" lon="5.19862">
        <ele>576.45</ele>
        <time>2017-04-23T07:58:52Z</time>
      </trkpt>
      <trkpt lat="44.99111" lon="5.19856">
        <ele>576.93</ele>
        <time>2017-04-23T07:59:05Z</time>
      </trkpt>
      <trkpt lat="44.99105" lon="5.19852">
        <ele>577.89</ele>
        <time>2017-04-23T07:59:11Z</time>
      </trkpt>
      <trkpt lat="44.9909" lon="5.19845">
        <ele>578.85</ele>
        <time>2017-04-23T07:59:24Z</time>
      </trkpt>
      <trkpt lat="44.99079" lon="5.19839">
        <ele>579.33</ele>
        <time>2017-04-23T07:59:37Z</time>
      </trkpt>
      <trkpt lat="44.99077" lon="5.19838">
        <ele>579.33</ele>
        <time>2017-04-23T07:59:38Z</time>
      </trkpt>
      <trkpt lat="44.99067" lon="5.19832">
        <ele>579.81</ele>
        <time>2017-04-23T07:59:49Z</time>
      </trkpt>
      <trkpt lat="44.99057" lon="5.19825">
        <ele>580.29</ele>
        <time>2017-04-23T07:59:57Z</time>
      </trkpt>
      <trkpt lat="44.99043" lon="5.19814">
        <ele>581.25</ele>
        <time>2017-04-23T08:00:10Z</time>
      </trkpt>
      <trkpt lat="44.99027" lon="5.19806">
        <ele>582.7</ele>
        <time>2017-04-23T08:00:26Z</time>
      </trkpt>
      <trkpt lat="44.99025" lon="5.19806">
        <ele>582.22</ele>
        <time>2017-04-23T08:00:27Z</time>
      </trkpt>
      <trkpt lat="44.99011" lon="5.1981">
        <ele>583.18</ele>
        <time>2017-04-23T08:00:40Z</time>
      </trkpt>
      <trkpt lat="44.99009" lon="5.19813">
        <ele>583.18</ele>
        <time>2017-04-23T08:00:43Z</time>
      </trkpt>
      <trkpt lat="44.98996" lon="5.19818">
        <ele>583.66</ele>
        <time>2017-04-23T08:00:52Z</time>
      </trkpt>
      <trkpt lat="44.9899" lon="5.19818">
        <ele>583.66</ele>
        <time>2017-04-23T08:00:57Z</time>
      </trkpt>
      <trkpt lat="44.98974" lon="5.19815">
        <ele>583.66</ele>
        <time>2017-04-23T08:01:11Z</time>
      </trkpt>
      <trkpt lat="44.9896" lon="5.19817">
        <ele>584.62</ele>
        <time>2017-04-23T08:01:23Z</time>
      </trkpt>
      <trkpt lat="44.98945" lon="5.19815">
        <ele>585.58</ele>
        <time>2017-04-23T08:01:37Z</time>
      </trkpt>
      <trkpt lat="44.98936" lon="5.19815">
        <ele>586.06</ele>
        <time>2017-04-23T08:01:45Z</time>
      </trkpt>
      <trkpt lat="44.9893" lon="5.19814">
        <ele>586.54</ele>
        <time>2017-04-23T08:01:50Z</time>
      </trkpt>
      <trkpt lat="44.98915" lon="5.19811">
        <ele>588.46</ele>
        <time>2017-04-23T08:02:04Z</time>
      </trkpt>
      <trkpt lat="44.98908" lon="5.19808">
        <ele>588.95</ele>
        <time>2017-04-23T08:02:10Z</time>
      </trkpt>
      <trkpt lat="44.98896" lon="5.19796">
        <ele>590.87</ele>
        <time>2017-04-23T08:02:26Z</time>
      </trkpt>
      <trkpt lat="44.98886" lon="5.19789">
        <ele>591.83</ele>
        <time>2017-04-23T08:02:36Z</time>
      </trkpt>
      <trkpt lat="44.98876" lon="5.19778">
        <ele>593.27</ele>
        <time>2017-04-23T08:02:49Z</time>
      </trkpt>
      <trkpt lat="44.98863" lon="5.19769">
        <ele>594.23</ele>
        <time>2017-04-23T08:03:01Z</time>
      </trkpt>
      <trkpt lat="44.98848" lon="5.19762">
        <ele>595.19</ele>
        <time>2017-04-23T08:03:14Z</time>
      </trkpt>
      <trkpt lat="44.98841" lon="5.19759">
        <ele>595.19</ele>
        <time>2017-04-23T08:03:20Z</time>
      </trkpt>
      <trkpt lat="44.98824" lon="5.19759">
        <ele>595.19</ele>
        <time>2017-04-23T08:03:34Z</time>
      </trkpt>
      <trkpt lat="44.98805" lon="5.19755">
        <ele>596.15</ele>
        <time>2017-04-23T08:03:49Z</time>
      </trkpt>
      <trkpt lat="44.9879" lon="5.19746">
        <ele>597.12</ele>
        <time>2017-04-23T08:04:03Z</time>
      </trkpt>
      <trkpt lat="44.98774" lon="5.19738">
        <ele>598.08</ele>
        <time>2017-04-23T08:04:18Z</time>
      </trkpt>
      <trkpt lat="44.98755" lon="5.19711">
        <ele>599.04</ele>
        <time>2017-04-23T08:04:34Z</time>
      </trkpt>
      <trkpt lat="44.98748" lon="5.19713">
        <ele>599.52</ele>
        <time>2017-04-23T08:04:42Z</time>
      </trkpt>
      <trkpt lat="44.98736" lon="5.19708">
        <ele>600.48</ele>
        <time>2017-04-23T08:04:57Z</time>
      </trkpt>
      <trkpt lat="44.98719" lon="5.1971">
        <ele>600.96</ele>
        <time>2017-04-23T08:05:10Z</time>
      </trkpt>
      <trkpt lat="44.98701" lon="5.19723">
        <ele>601.92</ele>
        <time>2017-04-23T08:05:25Z</time>
      </trkpt>
      <trkpt lat="44.98694" lon="5.19732">
        <ele>601.92</ele>
        <time>2017-04-23T08:05:32Z</time>
      </trkpt>
      <trkpt lat="44.98683" lon="5.19753">
        <ele>602.88</ele>
        <time>2017-04-23T08:05:47Z</time>
      </trkpt>
      <trkpt lat="44.98675" lon="5.19768">
        <ele>603.36</ele>
        <time>2017-04-23T08:06:00Z</time>
      </trkpt>
      <trkpt lat="44.98672" lon="5.19773">
        <ele>603.85</ele>
        <time>2017-04-23T08:06:04Z</time>
      </trkpt>
      <trkpt lat="44.98665" lon="5.19781">
        <ele>604.33</ele>
        <time>2017-04-23T08:06:12Z</time>
      </trkpt>
      <trkpt lat="44.98652" lon="5.1979">
        <ele>604.81</ele>
        <time>2017-04-23T08:06:26Z</time>
      </trkpt>
      <trkpt lat="44.98646" lon="5.19797">
        <ele>604.81</ele>
        <time>2017-04-23T08:06:32Z</time>
      </trkpt>
      <trkpt lat="44.9863" lon="5.19813">
        <ele>605.77</ele>
        <time>2017-04-23T08:06:46Z</time>
      </trkpt>
      <trkpt lat="44.98616" lon="5.19826">
        <ele>606.73</ele>
        <time>2017-04-23T08:07:00Z</time>
      </trkpt>
      <trkpt lat="44.9861" lon="5.19833">
        <ele>607.21</ele>
        <time>2017-04-23T08:07:07Z</time>
      </trkpt>
      <trkpt lat="44.986" lon="5.19844">
        <ele>608.65</ele>
        <time>2017-04-23T08:07:19Z</time>
      </trkpt>
      <trkpt lat="44.98598" lon="5.19856">
        <ele>604.81</ele>
        <time>2017-04-23T08:09:04Z</time>
      </trkpt>
      <trkpt lat="44.98585" lon="5.19876">
        <ele>605.77</ele>
        <time>2017-04-23T08:09:19Z</time>
      </trkpt>
      <trkpt lat="44.98573" lon="5.19893">
        <ele>606.73</ele>
        <time>2017-04-23T08:09:33Z</time>
      </trkpt>
      <trkpt lat="44.98561" lon="5.19909">
        <ele>607.69</ele>
        <time>2017-04-23T08:09:47Z</time>
      </trkpt>
      <trkpt lat="44.98545" lon="5.19923">
        <ele>609.13</ele>
        <time>2017-04-23T08:10:01Z</time>
      </trkpt>
      <trkpt lat="44.98537" lon="5.1993">
        <ele>608.65</ele>
        <time>2017-04-23T08:10:09Z</time>
      </trkpt>
      <trkpt lat="44.98523" lon="5.19934">
        <ele>609.61</ele>
        <time>2017-04-23T08:10:22Z</time>
      </trkpt>
      <trkpt lat="44.98508" lon="5.19926">
        <ele>611.54</ele>
        <time>2017-04-23T08:10:37Z</time>
      </trkpt>
      <trkpt lat="44.98497" lon="5.19918">
        <ele>613.46</ele>
        <time>2017-04-23T08:10:50Z</time>
      </trkpt>
      <trkpt lat="44.98483" lon="5.19912">
        <ele>615.86</ele>
        <time>2017-04-23T08:11:05Z</time>
      </trkpt>
      <trkpt lat="44.98474" lon="5.19907">
        <ele>617.3</ele>
        <time>2017-04-23T08:11:16Z</time>
      </trkpt>
      <trkpt lat="44.98461" lon="5.19902">
        <ele>619.71</ele>
        <time>2017-04-23T08:11:29Z</time>
      </trkpt>
      <trkpt lat="44.98447" lon="5.19897">
        <ele>621.63</ele>
        <time>2017-04-23T08:11:45Z</time>
      </trkpt>
      <trkpt lat="44.98439" lon="5.19895">
        <ele>622.59</ele>
        <time>2017-04-23T08:11:54Z</time>
      </trkpt>
      <trkpt lat="44.98423" lon="5.19893">
        <ele>624.99</ele>
        <time>2017-04-23T08:12:09Z</time>
      </trkpt>
      <trkpt lat="44.9842" lon="5.19892">
        <ele>624.99</ele>
        <time>2017-04-23T08:12:13Z</time>
      </trkpt>
      <trkpt lat="44.98418" lon="5.19892">
        <ele>625.96</ele>
        <time>2017-04-23T08:12:15Z</time>
      </trkpt>
      <trkpt lat="44.98404" lon="5.19885">
        <ele>627.88</ele>
        <time>2017-04-23T08:12:30Z</time>
      </trkpt>
      <trkpt lat="44.98388" lon="5.19873">
        <ele>629.8</ele>
        <time>2017-04-23T08:12:47Z</time>
      </trkpt>
      <trkpt lat="44.98373" lon="5.19865">
        <ele>631.24</ele>
        <time>2017-04-23T08:13:00Z</time>
      </trkpt>
      <trkpt lat="44.98359" lon="5.1986">
        <ele>632.68</ele>
        <time>2017-04-23T08:13:14Z</time>
      </trkpt>
      <trkpt lat="44.98345" lon="5.19854">
        <ele>634.61</ele>
        <time>2017-04-23T08:13:28Z</time>
      </trkpt>
      <trkpt lat="44.98329" lon="5.1985">
        <ele>636.53</ele>
        <time>2017-04-23T08:13:42Z</time>
      </trkpt>
      <trkpt lat="44.98316" lon="5.19847">
        <ele>637.97</ele>
        <time>2017-04-23T08:13:54Z</time>
      </trkpt>
      <trkpt lat="44.98314" lon="5.19847">
        <ele>637.97</ele>
        <time>2017-04-23T08:13:56Z</time>
      </trkpt>
      <trkpt lat="44.98312" lon="5.19848">
        <ele>637.97</ele>
        <time>2017-04-23T08:13:58Z</time>
      </trkpt>
      <trkpt lat="44.98292" lon="5.19848">
        <ele>640.38</ele>
        <time>2017-04-23T08:14:15Z</time>
      </trkpt>
      <trkpt lat="44.98281" lon="5.19849">
        <ele>641.82</ele>
        <time>2017-04-23T08:14:27Z</time>
      </trkpt>
      <trkpt lat="44.9827" lon="5.19852">
        <ele>642.3</ele>
        <time>2017-04-23T08:14:38Z</time>
      </trkpt>
      <trkpt lat="44.98254" lon="5.19857">
        <ele>643.74</ele>
        <time>2017-04-23T08:14:52Z</time>
      </trkpt>
      <trkpt lat="44.98239" lon="5.19859">
        <ele>644.22</ele>
        <time>2017-04-23T08:15:02Z</time>
      </trkpt>
      <trkpt lat="44.98233" lon="5.19859">
        <ele>644.22</ele>
        <time>2017-04-23T08:15:07Z</time>
      </trkpt>
      <trkpt lat="44.98229" lon="5.19861">
        <ele>644.7</ele>
        <time>2017-04-23T08:15:10Z</time>
      </trkpt>
      <trkpt lat="44.98208" lon="5.19865">
        <ele>644.7</ele>
        <time>2017-04-23T08:15:25Z</time>
      </trkpt>
      <trkpt lat="44.98188" lon="5.1987">
        <ele>645.18</ele>
        <time>2017-04-23T08:15:42Z</time>
      </trkpt>
      <trkpt lat="44.98169" lon="5.19873">
        <ele>646.14</ele>
        <time>2017-04-23T08:15:57Z</time>
      </trkpt>
      <trkpt lat="44.9815" lon="5.19877">
        <ele>646.62</ele>
        <time>2017-04-23T08:16:12Z</time>
      </trkpt>
      <trkpt lat="44.9814" lon="5.19878">
        <ele>648.07</ele>
        <time>2017-04-23T08:16:22Z</time>
      </trkpt>
      <trkpt lat="44.98125" lon="5.19879">
        <ele>650.47</ele>
        <time>2017-04-23T08:16:37Z</time>
      </trkpt>
      <trkpt lat="44.98113" lon="5.19876">
        <ele>652.39</ele>
        <time>2017-04-23T08:16:49Z</time>
      </trkpt>
      <trkpt lat="44.981" lon="5.19878">
        <ele>653.83</ele>
        <time>2017-04-23T08:17:00Z</time>
      </trkpt>
      <trkpt lat="44.98087" lon="5.19882">
        <ele>655.28</ele>
        <time>2017-04-23T08:17:13Z</time>
      </trkpt>
      <trkpt lat="44.98071" lon="5.19889">
        <ele>656.72</ele>
        <time>2017-04-23T08:17:27Z</time>
      </trkpt>
      <trkpt lat="44.98056" lon="5.19895">
        <ele>658.16</ele>
        <time>2017-04-23T08:17:40Z</time>
      </trkpt>
      <trkpt lat="44.98042" lon="5.19907">
        <ele>660.08</ele>
        <time>2017-04-23T08:17:55Z</time>
      </trkpt>
      <trkpt lat="44.9803" lon="5.1992">
        <ele>660.56</ele>
        <time>2017-04-23T08:18:09Z</time>
      </trkpt>
      <trkpt lat="44.98029" lon="5.19921">
        <ele>660.56</ele>
        <time>2017-04-23T08:18:10Z</time>
      </trkpt>
      <trkpt lat="44.98013" lon="5.1993">
        <ele>661.52</ele>
        <time>2017-04-23T08:18:25Z</time>
      </trkpt>
      <trkpt lat="44.97997" lon="5.19935">
        <ele>662.49</ele>
        <time>2017-04-23T08:18:38Z</time>
      </trkpt>
      <trkpt lat="44.97986" lon="5.19936">
        <ele>662.97</ele>
        <time>2017-04-23T08:18:46Z</time>
      </trkpt>
      <trkpt lat="44.97974" lon="5.19942">
        <ele>664.41</ele>
        <time>2017-04-23T08:19:00Z</time>
      </trkpt>
      <trkpt lat="44.97966" lon="5.19943">
        <ele>662.49</ele>
        <time>2017-04-23T08:21:03Z</time>
      </trkpt>
      <trkpt lat="44.97953" lon="5.19949">
        <ele>664.89</ele>
        <time>2017-04-23T08:21:18Z</time>
      </trkpt>
      <trkpt lat="44.9794" lon="5.19955">
        <ele>667.29</ele>
        <time>2017-04-23T08:21:33Z</time>
      </trkpt>
      <trkpt lat="44.97934" lon="5.19959">
        <ele>667.29</ele>
        <time>2017-04-23T08:22:34Z</time>
      </trkpt>
      <trkpt lat="44.97917" lon="5.19969">
        <ele>670.18</ele>
        <time>2017-04-23T08:22:48Z</time>
      </trkpt>
      <trkpt lat="44.97898" lon="5.19985">
        <ele>673.06</ele>
        <time>2017-04-23T08:23:05Z</time>
      </trkpt>
      <trkpt lat="44.97887" lon="5.19994">
        <ele>675.94</ele>
        <time>2017-04-23T08:23:19Z</time>
      </trkpt>
      <trkpt lat="44.97877" lon="5.20007">
        <ele>678.35</ele>
        <time>2017-04-23T08:23:33Z</time>
      </trkpt>
      <trkpt lat="44.97871" lon="5.20017">
        <ele>680.75</ele>
        <time>2017-04-23T08:23:42Z</time>
      </trkpt>
      <trkpt lat="44.97869" lon="5.2002">
        <ele>680.75</ele>
        <time>2017-04-23T08:23:45Z</time>
      </trkpt>
      <trkpt lat="44.97867" lon="5.20023">
        <ele>681.23</ele>
        <time>2017-04-23T08:23:48Z</time>
      </trkpt>
      <trkpt lat="44.97858" lon="5.20032">
        <ele>683.15</ele>
        <time>2017-04-23T08:24:00Z</time>
      </trkpt>
      <trkpt lat="44.97851" lon="5.2004">
        <ele>685.08</ele>
        <time>2017-04-23T08:24:10Z</time>
      </trkpt>
      <trkpt lat="44.9785" lon="5.2004">
        <ele>685.08</ele>
        <time>2017-04-23T08:24:11Z</time>
      </trkpt>
      <trkpt lat="44.97837" lon="5.2005">
        <ele>687.48</ele>
        <time>2017-04-23T08:24:26Z</time>
      </trkpt>
      <trkpt lat="44.97824" lon="5.20057">
        <ele>690.36</ele>
        <time>2017-04-23T08:24:42Z</time>
      </trkpt>
      <trkpt lat="44.97812" lon="5.20066">
        <ele>692.77</ele>
        <time>2017-04-23T08:24:57Z</time>
      </trkpt>
      <trkpt lat="44.97801" lon="5.20074">
        <ele>695.65</ele>
        <time>2017-04-23T08:25:12Z</time>
      </trkpt>
      <trkpt lat="44.97793" lon="5.20081">
        <ele>698.05</ele>
        <time>2017-04-23T08:25:24Z</time>
      </trkpt>
      <trkpt lat="44.97782" lon="5.20088">
        <ele>699.98</ele>
        <time>2017-04-23T08:25:38Z</time>
      </trkpt>
      <trkpt lat="44.97772" lon="5.20096">
        <ele>702.38</ele>
        <time>2017-04-23T08:25:51Z</time>
      </trkpt>
      <trkpt lat="44.97767" lon="5.20102">
        <ele>703.82</ele>
        <time>2017-04-23T08:25:58Z</time>
      </trkpt>
      <trkpt lat="44.97762" lon="5.20104">
        <ele>704.3</ele>
        <time>2017-04-23T08:26:04Z</time>
      </trkpt>
      <trkpt lat="44.97759" lon="5.2009">
        <ele>702.38</ele>
        <time>2017-04-23T08:26:15Z</time>
      </trkpt>
      <trkpt lat="44.97758" lon="5.20083">
        <ele>701.9</ele>
        <time>2017-04-23T08:26:20Z</time>
      </trkpt>
      <trkpt lat="44.97744" lon="5.20069">
        <ele>703.82</ele>
        <time>2017-04-23T08:26:36Z</time>
      </trkpt>
      <trkpt lat="44.97737" lon="5.20056">
        <ele>705.26</ele>
        <time>2017-04-23T08:26:49Z</time>
      </trkpt>
      <trkpt lat="44.97736" lon="5.20055">
        <ele>705.75</ele>
        <time>2017-04-23T08:26:50Z</time>
      </trkpt>
      <trkpt lat="44.9773" lon="5.20036">
        <ele>706.71</ele>
        <time>2017-04-23T08:27:05Z</time>
      </trkpt>
      <trkpt lat="44.97725" lon="5.2002">
        <ele>709.59</ele>
        <time>2017-04-23T08:27:18Z</time>
      </trkpt>
      <trkpt lat="44.97723" lon="5.20004">
        <ele>711.99</ele>
        <time>2017-04-23T08:27:31Z</time>
      </trkpt>
      <trkpt lat="44.97722" lon="5.19996">
        <ele>712.95</ele>
        <time>2017-04-23T08:27:37Z</time>
      </trkpt>
      <trkpt lat="44.9772" lon="5.19988">
        <ele>713.92</ele>
        <time>2017-04-23T08:27:43Z</time>
      </trkpt>
      <trkpt lat="44.97714" lon="5.1997">
        <ele>716.8</ele>
        <time>2017-04-23T08:27:59Z</time>
      </trkpt>
      <trkpt lat="44.9771" lon="5.19952">
        <ele>719.2</ele>
        <time>2017-04-23T08:28:14Z</time>
      </trkpt>
      <trkpt lat="44.97704" lon="5.19936">
        <ele>721.61</ele>
        <time>2017-04-23T08:28:27Z</time>
      </trkpt>
      <trkpt lat="44.97698" lon="5.19923">
        <ele>723.53</ele>
        <time>2017-04-23T08:28:40Z</time>
      </trkpt>
      <trkpt lat="44.97694" lon="5.19913">
        <ele>725.45</ele>
        <time>2017-04-23T08:28:50Z</time>
      </trkpt>
      <trkpt lat="44.97688" lon="5.19902">
        <ele>727.37</ele>
        <time>2017-04-23T08:29:01Z</time>
      </trkpt>
      <trkpt lat="44.97683" lon="5.19888">
        <ele>729.78</ele>
        <time>2017-04-23T08:29:15Z</time>
      </trkpt>
      <trkpt lat="44.9768" lon="5.19877">
        <ele>732.66</ele>
        <time>2017-04-23T08:29:27Z</time>
      </trkpt>
      <trkpt lat="44.97675" lon="5.19869">
        <ele>735.07</ele>
        <time>2017-04-23T08:29:39Z</time>
      </trkpt>
      <trkpt lat="44.97668" lon="5.19857">
        <ele>738.43</ele>
        <time>2017-04-23T08:29:54Z</time>
      </trkpt>
      <trkpt lat="44.97661" lon="5.19844">
        <ele>741.79</ele>
        <time>2017-04-23T08:30:09Z</time>
      </trkpt>
      <trkpt lat="44.97654" lon="5.19832">
        <ele>743.24</ele>
        <time>2017-04-23T08:30:23Z</time>
      </trkpt>
      <trkpt lat="44.97648" lon="5.19818">
        <ele>746.6</ele>
        <time>2017-04-23T08:30:38Z</time>
      </trkpt>
      <trkpt lat="44.97639" lon="5.19804">
        <ele>748.52</ele>
        <time>2017-04-23T08:30:53Z</time>
      </trkpt>
      <trkpt lat="44.97631" lon="5.19796">
        <ele>751.89</ele>
        <time>2017-04-23T08:31:06Z</time>
      </trkpt>
      <trkpt lat="44.97624" lon="5.19789">
        <ele>753.81</ele>
        <time>2017-04-23T08:31:20Z</time>
      </trkpt>
      <trkpt lat="44.97616" lon="5.19783">
        <ele>757.18</ele>
        <time>2017-04-23T08:31:32Z</time>
      </trkpt>
      <trkpt lat="44.97606" lon="5.19776">
        <ele>759.58</ele>
        <time>2017-04-23T08:31:47Z</time>
      </trkpt>
      <trkpt lat="44.97597" lon="5.1977">
        <ele>762.46</ele>
        <time>2017-04-23T08:32:00Z</time>
      </trkpt>
      <trkpt lat="44.97586" lon="5.19765">
        <ele>765.35</ele>
        <time>2017-04-23T08:32:14Z</time>
      </trkpt>
      <trkpt lat="44.97584" lon="5.19765">
        <ele>765.83</ele>
        <time>2017-04-23T08:32:17Z</time>
      </trkpt>
      <trkpt lat="44.97572" lon="5.19762">
        <ele>767.75</ele>
        <time>2017-04-23T08:32:30Z</time>
      </trkpt>
      <trkpt lat="44.97559" lon="5.19758">
        <ele>767.75</ele>
        <time>2017-04-23T08:32:44Z</time>
      </trkpt>
      <trkpt lat="44.97546" lon="5.1975">
        <ele>767.27</ele>
        <time>2017-04-23T08:33:00Z</time>
      </trkpt>
      <trkpt lat="44.97542" lon="5.19748">
        <ele>767.27</ele>
        <time>2017-04-23T08:33:10Z</time>
      </trkpt>
      <trkpt lat="44.97538" lon="5.19748">
        <ele>767.75</ele>
        <time>2017-04-23T08:33:24Z</time>
      </trkpt>
      <trkpt lat="44.97533" lon="5.19749">
        <ele>766.31</ele>
        <time>2017-04-23T08:34:23Z</time>
      </trkpt>
      <trkpt lat="44.97533" lon="5.19749">
        <ele>766.31</ele>
        <time>2017-04-23T08:34:43Z</time>
      </trkpt>
      <trkpt lat="44.9753" lon="5.19758">
        <ele>767.27</ele>
        <time>2017-04-23T08:35:00Z</time>
      </trkpt>
      <trkpt lat="44.97535" lon="5.19776">
        <ele>767.75</ele>
        <time>2017-04-23T08:35:14Z</time>
      </trkpt>
      <trkpt lat="44.97536" lon="5.19784">
        <ele>768.23</ele>
        <time>2017-04-23T08:35:28Z</time>
      </trkpt>
      <trkpt lat="44.97537" lon="5.19787">
        <ele>769.67</ele>
        <time>2017-04-23T08:35:47Z</time>
      </trkpt>
      <trkpt lat="44.97536" lon="5.19786">
        <ele>769.67</ele>
        <time>2017-04-23T08:36:05Z</time>
      </trkpt>
      <trkpt lat="44.97541" lon="5.19798">
        <ele>770.63</ele>
        <time>2017-04-23T08:36:21Z</time>
      </trkpt>
      <trkpt lat="44.97541" lon="5.198">
        <ele>770.63</ele>
        <time>2017-04-23T08:36:22Z</time>
      </trkpt>
      <trkpt lat="44.97543" lon="5.19812">
        <ele>770.15</ele>
        <time>2017-04-23T08:36:36Z</time>
      </trkpt>
      <trkpt lat="44.97543" lon="5.19812">
        <ele>770.15</ele>
        <time>2017-04-23T08:36:37Z</time>
      </trkpt>
      <trkpt lat="44.97545" lon="5.19815">
        <ele>771.6</ele>
        <time>2017-04-23T08:36:42Z</time>
      </trkpt>
      <trkpt lat="44.97554" lon="5.19831">
        <ele>773.04</ele>
        <time>2017-04-23T08:36:57Z</time>
      </trkpt>
      <trkpt lat="44.97559" lon="5.19845">
        <ele>774.48</ele>
        <time>2017-04-23T08:37:10Z</time>
      </trkpt>
      <trkpt lat="44.97561" lon="5.19856">
        <ele>774.96</ele>
        <time>2017-04-23T08:37:18Z</time>
      </trkpt>
      <trkpt lat="44.97562" lon="5.19862">
        <ele>775.92</ele>
        <time>2017-04-23T08:37:24Z</time>
      </trkpt>
      <trkpt lat="44.97562" lon="5.19866">
        <ele>776.4</ele>
        <time>2017-04-23T08:37:27Z</time>
      </trkpt>
      <trkpt lat="44.97561" lon="5.19876">
        <ele>776.88</ele>
        <time>2017-04-23T08:39:40Z</time>
      </trkpt>
      <trkpt lat="44.9756" lon="5.19882">
        <ele>776.4</ele>
        <time>2017-04-23T08:39:54Z</time>
      </trkpt>
      <trkpt lat="44.97554" lon="5.19903">
        <ele>780.25</ele>
        <time>2017-04-23T08:40:08Z</time>
      </trkpt>
      <trkpt lat="44.97547" lon="5.19921">
        <ele>783.13</ele>
        <time>2017-04-23T08:40:21Z</time>
      </trkpt>
      <trkpt lat="44.97537" lon="5.19942">
        <ele>783.13</ele>
        <time>2017-04-23T08:40:37Z</time>
      </trkpt>
      <trkpt lat="44.97529" lon="5.1995">
        <ele>785.05</ele>
        <time>2017-04-23T08:40:51Z</time>
      </trkpt>
      <trkpt lat="44.97521" lon="5.19961">
        <ele>787.94</ele>
        <time>2017-04-23T08:41:04Z</time>
      </trkpt>
      <trkpt lat="44.97514" lon="5.19971">
        <ele>790.82</ele>
        <time>2017-04-23T08:41:18Z</time>
      </trkpt>
      <trkpt lat="44.97509" lon="5.19985">
        <ele>793.71</ele>
        <time>2017-04-23T08:41:34Z</time>
      </trkpt>
      <trkpt lat="44.97508" lon="5.19986">
        <ele>793.71</ele>
        <time>2017-04-23T08:41:35Z</time>
      </trkpt>
      <trkpt lat="44.97498" lon="5.19997">
        <ele>795.63</ele>
        <time>2017-04-23T08:41:51Z</time>
      </trkpt>
      <trkpt lat="44.97484" lon="5.20008">
        <ele>797.55</ele>
        <time>2017-04-23T08:44:58Z</time>
      </trkpt>
      <trkpt lat="44.97477" lon="5.20016">
        <ele>800.44</ele>
        <time>2017-04-23T08:45:08Z</time>
      </trkpt>
      <trkpt lat="44.97467" lon="5.20024">
        <ele>801.88</ele>
        <time>2017-04-23T08:45:20Z</time>
      </trkpt>
      <trkpt lat="44.97461" lon="5.20041">
        <ele>800.44</ele>
        <time>2017-04-23T08:45:34Z</time>
      </trkpt>
      <trkpt lat="44.97461" lon="5.20042">
        <ele>800.44</ele>
        <time>2017-04-23T08:45:35Z</time>
      </trkpt>
      <trkpt lat="44.97456" lon="5.2006">
        <ele>799.95</ele>
        <time>2017-04-23T08:45:47Z</time>
      </trkpt>
      <trkpt lat="44.97448" lon="5.20084">
        <ele>798.99</ele>
        <time>2017-04-23T08:46:03Z</time>
      </trkpt>
      <trkpt lat="44.97447" lon="5.20086">
        <ele>800.44</ele>
        <time>2017-04-23T08:46:05Z</time>
      </trkpt>
      <trkpt lat="44.97445" lon="5.2009">
        <ele>800.44</ele>
        <time>2017-04-23T08:46:11Z</time>
      </trkpt>
      <trkpt lat="44.97444" lon="5.20095">
        <ele>800.44</ele>
        <time>2017-04-23T08:46:15Z</time>
      </trkpt>
      <trkpt lat="44.97442" lon="5.2011">
        <ele>802.84</ele>
        <time>2017-04-23T08:46:29Z</time>
      </trkpt>
      <trkpt lat="44.97439" lon="5.20118">
        <ele>804.76</ele>
        <time>2017-04-23T08:46:47Z</time>
      </trkpt>
      <trkpt lat="44.97434" lon="5.20122">
        <ele>804.76</ele>
        <time>2017-04-23T08:47:06Z</time>
      </trkpt>
      <trkpt lat="44.9743" lon="5.20122">
        <ele>804.76</ele>
        <time>2017-04-23T08:47:24Z</time>
      </trkpt>
      <trkpt lat="44.97422" lon="5.20127">
        <ele>804.76</ele>
        <time>2017-04-23T08:47:37Z</time>
      </trkpt>
      <trkpt lat="44.97415" lon="5.20129">
        <ele>804.28</ele>
        <time>2017-04-23T08:47:53Z</time>
      </trkpt>
      <trkpt lat="44.97401" lon="5.20138">
        <ele>804.28</ele>
        <time>2017-04-23T08:48:09Z</time>
      </trkpt>
      <trkpt lat="44.97386" lon="5.20143">
        <ele>804.28</ele>
        <time>2017-04-23T08:48:24Z</time>
      </trkpt>
      <trkpt lat="44.97371" lon="5.20144">
        <ele>802.84</ele>
        <time>2017-04-23T08:48:38Z</time>
      </trkpt>
      <trkpt lat="44.97354" lon="5.20141">
        <ele>801.88</ele>
        <time>2017-04-23T08:48:54Z</time>
      </trkpt>
      <trkpt lat="44.97343" lon="5.20138">
        <ele>802.84</ele>
        <time>2017-04-23T08:49:05Z</time>
      </trkpt>
      <trkpt lat="44.97328" lon="5.20126">
        <ele>805.24</ele>
        <time>2017-04-23T08:49:20Z</time>
      </trkpt>
      <trkpt lat="44.97312" lon="5.20119">
        <ele>806.2</ele>
        <time>2017-04-23T08:49:36Z</time>
      </trkpt>
      <trkpt lat="44.97307" lon="5.20133">
        <ele>808.13</ele>
        <time>2017-04-23T08:49:50Z</time>
      </trkpt>
      <trkpt lat="44.97303" lon="5.20142">
        <ele>811.49</ele>
        <time>2017-04-23T08:50:01Z</time>
      </trkpt>
      <trkpt lat="44.97299" lon="5.20155">
        <ele>813.41</ele>
        <time>2017-04-23T08:50:16Z</time>
      </trkpt>
      <trkpt lat="44.97294" lon="5.20167">
        <ele>816.3</ele>
        <time>2017-04-23T08:50:34Z</time>
      </trkpt>
      <trkpt lat="44.97289" lon="5.2018">
        <ele>819.18</ele>
        <time>2017-04-23T08:50:50Z</time>
      </trkpt>
      <trkpt lat="44.97284" lon="5.2019">
        <ele>821.1</ele>
        <time>2017-04-23T08:51:07Z</time>
      </trkpt>
      <trkpt lat="44.97279" lon="5.20198">
        <ele>824.47</ele>
        <time>2017-04-23T08:51:21Z</time>
      </trkpt>
      <trkpt lat="44.97271" lon="5.20205">
        <ele>826.87</ele>
        <time>2017-04-23T08:51:41Z</time>
      </trkpt>
      <trkpt lat="44.97266" lon="5.2021">
        <ele>830.24</ele>
        <time>2017-04-23T08:51:58Z</time>
      </trkpt>
      <trkpt lat="44.9726" lon="5.20219">
        <ele>831.2</ele>
        <time>2017-04-23T08:52:14Z</time>
      </trkpt>
      <trkpt lat="44.97254" lon="5.20237">
        <ele>832.16</ele>
        <time>2017-04-23T08:52:30Z</time>
      </trkpt>
      <trkpt lat="44.97254" lon="5.20251">
        <ele>833.12</ele>
        <time>2017-04-23T08:52:44Z</time>
      </trkpt>
      <trkpt lat="44.97251" lon="5.20267">
        <ele>836.48</ele>
        <time>2017-04-23T08:53:00Z</time>
      </trkpt>
      <trkpt lat="44.97246" lon="5.20276">
        <ele>837.93</ele>
        <time>2017-04-23T08:53:15Z</time>
      </trkpt>
      <trkpt lat="44.97245" lon="5.20277">
        <ele>838.41</ele>
        <time>2017-04-23T08:53:28Z</time>
      </trkpt>
      <trkpt lat="44.97244" lon="5.20277">
        <ele>837.93</ele>
        <time>2017-04-23T08:53:46Z</time>
      </trkpt>
      <trkpt lat="44.97244" lon="5.20276">
        <ele>837.93</ele>
        <time>2017-04-23T08:54:11Z</time>
      </trkpt>
      <trkpt lat="44.97248" lon="5.20275">
        <ele>838.41</ele>
        <time>2017-04-23T08:54:29Z</time>
      </trkpt>
      <trkpt lat="44.97265" lon="5.20274">
        <ele>840.33</ele>
        <time>2017-04-23T08:54:47Z</time>
      </trkpt>
      <trkpt lat="44.97268" lon="5.20274">
        <ele>840.33</ele>
        <time>2017-04-23T08:54:50Z</time>
      </trkpt>
      <trkpt lat="44.97282" lon="5.20266">
        <ele>843.21</ele>
        <time>2017-04-23T08:55:03Z</time>
      </trkpt>
      <trkpt lat="44.97293" lon="5.20256">
        <ele>845.62</ele>
        <time>2017-04-23T08:55:18Z</time>
      </trkpt>
      <trkpt lat="44.973" lon="5.2025">
        <ele>846.1</ele>
        <time>2017-04-23T08:55:26Z</time>
      </trkpt>
      <trkpt lat="44.97315" lon="5.20242">
        <ele>847.54</ele>
        <time>2017-04-23T08:55:41Z</time>
      </trkpt>
      <trkpt lat="44.9733" lon="5.20245">
        <ele>848.98</ele>
        <time>2017-04-23T08:55:56Z</time>
      </trkpt>
      <trkpt lat="44.97345" lon="5.20251">
        <ele>850.9</ele>
        <time>2017-04-23T08:56:11Z</time>
      </trkpt>
      <trkpt lat="44.97355" lon="5.20254">
        <ele>851.87</ele>
        <time>2017-04-23T08:56:25Z</time>
      </trkpt>
      <trkpt lat="44.97368" lon="5.20258">
        <ele>854.75</ele>
        <time>2017-04-23T08:56:39Z</time>
      </trkpt>
      <trkpt lat="44.9738" lon="5.20262">
        <ele>855.23</ele>
        <time>2017-04-23T08:56:52Z</time>
      </trkpt>
      <trkpt lat="44.97395" lon="5.20264">
        <ele>856.19</ele>
        <time>2017-04-23T08:57:07Z</time>
      </trkpt>
      <trkpt lat="44.97404" lon="5.20274">
        <ele>856.19</ele>
        <time>2017-04-23T08:57:21Z</time>
      </trkpt>
      <trkpt lat="44.97403" lon="5.20285">
        <ele>857.63</ele>
        <time>2017-04-23T08:57:34Z</time>
      </trkpt>
      <trkpt lat="44.97396" lon="5.2029">
        <ele>860.52</ele>
        <time>2017-04-23T08:57:46Z</time>
      </trkpt>
      <trkpt lat="44.97388" lon="5.20295">
        <ele>862.92</ele>
        <time>2017-04-23T08:58:01Z</time>
      </trkpt>
      <trkpt lat="44.97379" lon="5.20301">
        <ele>866.29</ele>
        <time>2017-04-23T08:58:15Z</time>
      </trkpt>
      <trkpt lat="44.9737" lon="5.20308">
        <ele>869.65</ele>
        <time>2017-04-23T08:58:29Z</time>
      </trkpt>
      <trkpt lat="44.97362" lon="5.20316">
        <ele>871.57</ele>
        <time>2017-04-23T08:58:40Z</time>
      </trkpt>
      <trkpt lat="44.97358" lon="5.20322">
        <ele>873.01</ele>
        <time>2017-04-23T08:58:46Z</time>
      </trkpt>
      <trkpt lat="44.97349" lon="5.20332">
        <ele>876.38</ele>
        <time>2017-04-23T08:59:01Z</time>
      </trkpt>
      <trkpt lat="44.97338" lon="5.20342">
        <ele>878.78</ele>
        <time>2017-04-23T08:59:16Z</time>
      </trkpt>
      <trkpt lat="44.97328" lon="5.2035">
        <ele>881.67</ele>
        <time>2017-04-23T08:59:31Z</time>
      </trkpt>
      <trkpt lat="44.97327" lon="5.20356">
        <ele>882.63</ele>
        <time>2017-04-23T08:59:44Z</time>
      </trkpt>
      <trkpt lat="44.97327" lon="5.20366">
        <ele>886.47</ele>
        <time>2017-04-23T08:59:58Z</time>
      </trkpt>
      <trkpt lat="44.97323" lon="5.20375">
        <ele>889.36</ele>
        <time>2017-04-23T09:00:11Z</time>
      </trkpt>
      <trkpt lat="44.97319" lon="5.20383">
        <ele>892.24</ele>
        <time>2017-04-23T09:00:25Z</time>
      </trkpt>
      <trkpt lat="44.97315" lon="5.20388">
        <ele>895.61</ele>
        <time>2017-04-23T09:00:37Z</time>
      </trkpt>
      <trkpt lat="44.97307" lon="5.20402">
        <ele>897.53</ele>
        <time>2017-04-23T09:00:52Z</time>
      </trkpt>
      <trkpt lat="44.97302" lon="5.2041">
        <ele>899.45</ele>
        <time>2017-04-23T09:01:06Z</time>
      </trkpt>
      <trkpt lat="44.97291" lon="5.20416">
        <ele>902.33</ele>
        <time>2017-04-23T09:01:22Z</time>
      </trkpt>
      <trkpt lat="44.97287" lon="5.20424">
        <ele>905.7</ele>
        <time>2017-04-23T09:01:36Z</time>
      </trkpt>
      <trkpt lat="44.97285" lon="5.20436">
        <ele>908.1</ele>
        <time>2017-04-23T09:01:51Z</time>
      </trkpt>
      <trkpt lat="44.97279" lon="5.20445">
        <ele>911.95</ele>
        <time>2017-04-23T09:02:06Z</time>
      </trkpt>
      <trkpt lat="44.97269" lon="5.20454">
        <ele>914.35</ele>
        <time>2017-04-23T09:02:20Z</time>
      </trkpt>
      <trkpt lat="44.97265" lon="5.2047">
        <ele>915.31</ele>
        <time>2017-04-23T09:02:33Z</time>
      </trkpt>
      <trkpt lat="44.97261" lon="5.2048">
        <ele>917.72</ele>
        <time>2017-04-23T09:02:45Z</time>
      </trkpt>
      <trkpt lat="44.97252" lon="5.20493">
        <ele>920.12</ele>
        <time>2017-04-23T09:02:59Z</time>
      </trkpt>
      <trkpt lat="44.97247" lon="5.20505">
        <ele>923.48</ele>
        <time>2017-04-23T09:03:11Z</time>
      </trkpt>
      <trkpt lat="44.97243" lon="5.20515">
        <ele>926.37</ele>
        <time>2017-04-23T09:03:25Z</time>
      </trkpt>
      <trkpt lat="44.97238" lon="5.20525">
        <ele>929.25</ele>
        <time>2017-04-23T09:03:41Z</time>
      </trkpt>
      <trkpt lat="44.97231" lon="5.20529">
        <ele>932.14</ele>
        <time>2017-04-23T09:03:55Z</time>
      </trkpt>
      <trkpt lat="44.97231" lon="5.20542">
        <ele>935.5</ele>
        <time>2017-04-23T09:04:11Z</time>
      </trkpt>
      <trkpt lat="44.97229" lon="5.20553">
        <ele>938.86</ele>
        <time>2017-04-23T09:04:26Z</time>
      </trkpt>
      <trkpt lat="44.97222" lon="5.20557">
        <ele>941.75</ele>
        <time>2017-04-23T09:04:42Z</time>
      </trkpt>
      <trkpt lat="44.97222" lon="5.20569">
        <ele>945.11</ele>
        <time>2017-04-23T09:04:58Z</time>
      </trkpt>
      <trkpt lat="44.9722" lon="5.20575">
        <ele>946.56</ele>
        <time>2017-04-23T09:05:11Z</time>
      </trkpt>
      <trkpt lat="44.9722" lon="5.20585">
        <ele>949.44</ele>
        <time>2017-04-23T09:05:26Z</time>
      </trkpt>
      <trkpt lat="44.97219" lon="5.20591">
        <ele>952.32</ele>
        <time>2017-04-23T09:05:37Z</time>
      </trkpt>
      <trkpt lat="44.97216" lon="5.20599">
        <ele>955.21</ele>
        <time>2017-04-23T09:05:52Z</time>
      </trkpt>
      <trkpt lat="44.97215" lon="5.20607">
        <ele>958.57</ele>
        <time>2017-04-23T09:06:05Z</time>
      </trkpt>
      <trkpt lat="44.97207" lon="5.2061">
        <ele>961.46</ele>
        <time>2017-04-23T09:06:19Z</time>
      </trkpt>
      <trkpt lat="44.97205" lon="5.20618">
        <ele>964.34</ele>
        <time>2017-04-23T09:06:33Z</time>
      </trkpt>
      <trkpt lat="44.97203" lon="5.20623">
        <ele>967.7</ele>
        <time>2017-04-23T09:06:52Z</time>
      </trkpt>
      <trkpt lat="44.97203" lon="5.20627">
        <ele>968.67</ele>
        <time>2017-04-23T09:07:11Z</time>
      </trkpt>
      <trkpt lat="44.97207" lon="5.20636">
        <ele>970.59</ele>
        <time>2017-04-23T09:12:48Z</time>
      </trkpt>
      <trkpt lat="44.97207" lon="5.20644">
        <ele>973.95</ele>
        <time>2017-04-23T09:13:02Z</time>
      </trkpt>
      <trkpt lat="44.97208" lon="5.20654">
        <ele>977.32</ele>
        <time>2017-04-23T09:13:17Z</time>
      </trkpt>
      <trkpt lat="44.97211" lon="5.20663">
        <ele>979.72</ele>
        <time>2017-04-23T09:13:32Z</time>
      </trkpt>
      <trkpt lat="44.97213" lon="5.20672">
        <ele>983.09</ele>
        <time>2017-04-23T09:13:45Z</time>
      </trkpt>
      <trkpt lat="44.97215" lon="5.20683">
        <ele>985.97</ele>
        <time>2017-04-23T09:14:03Z</time>
      </trkpt>
      <trkpt lat="44.97216" lon="5.2069">
        <ele>988.85</ele>
        <time>2017-04-23T09:14:17Z</time>
      </trkpt>
      <trkpt lat="44.97217" lon="5.20697">
        <ele>991.26</ele>
        <time>2017-04-23T09:14:33Z</time>
      </trkpt>
      <trkpt lat="44.97217" lon="5.20706">
        <ele>994.14</ele>
        <time>2017-04-23T09:14:48Z</time>
      </trkpt>
      <trkpt lat="44.97216" lon="5.20713">
        <ele>997.02</ele>
        <time>2017-04-23T09:15:05Z</time>
      </trkpt>
      <trkpt lat="44.97217" lon="5.20721">
        <ele>999.43</ele>
        <time>2017-04-23T09:15:21Z</time>
      </trkpt>
      <trkpt lat="44.97218" lon="5.20732">
        <ele>1001.35</ele>
        <time>2017-04-23T09:15:35Z</time>
      </trkpt>
      <trkpt lat="44.97218" lon="5.20739">
        <ele>1004.23</ele>
        <time>2017-04-23T09:15:48Z</time>
      </trkpt>
      <trkpt lat="44.97219" lon="5.20749">
        <ele>1006.64</ele>
        <time>2017-04-23T09:16:02Z</time>
      </trkpt>
      <trkpt lat="44.97221" lon="5.20758">
        <ele>1009.52</ele>
        <time>2017-04-23T09:16:18Z</time>
      </trkpt>
      <trkpt lat="44.97223" lon="5.20771">
        <ele>1012.89</ele>
        <time>2017-04-23T09:16:35Z</time>
      </trkpt>
      <trkpt lat="44.97226" lon="5.20781">
        <ele>1014.81</ele>
        <time>2017-04-23T09:16:49Z</time>
      </trkpt>
      <trkpt lat="44.97227" lon="5.2079">
        <ele>1018.17</ele>
        <time>2017-04-23T09:17:02Z</time>
      </trkpt>
      <trkpt lat="44.97227" lon="5.20797">
        <ele>1021.06</ele>
        <time>2017-04-23T09:17:18Z</time>
      </trkpt>
      <trkpt lat="44.97227" lon="5.20806">
        <ele>1023.46</ele>
        <time>2017-04-23T09:17:35Z</time>
      </trkpt>
      <trkpt lat="44.9723" lon="5.20813">
        <ele>1026.83</ele>
        <time>2017-04-23T09:17:50Z</time>
      </trkpt>
      <trkpt lat="44.97233" lon="5.20825">
        <ele>1029.23</ele>
        <time>2017-04-23T09:18:09Z</time>
      </trkpt>
      <trkpt lat="44.97236" lon="5.20835">
        <ele>1032.11</ele>
        <time>2017-04-23T09:18:23Z</time>
      </trkpt>
      <trkpt lat="44.97238" lon="5.20847">
        <ele>1035</ele>
        <time>2017-04-23T09:18:38Z</time>
      </trkpt>
      <trkpt lat="44.97239" lon="5.20856">
        <ele>1037.88</ele>
        <time>2017-04-23T09:18:53Z</time>
      </trkpt>
      <trkpt lat="44.97243" lon="5.20865">
        <ele>1040.28</ele>
        <time>2017-04-23T09:19:09Z</time>
      </trkpt>
      <trkpt lat="44.97245" lon="5.20875">
        <ele>1043.17</ele>
        <time>2017-04-23T09:19:25Z</time>
      </trkpt>
      <trkpt lat="44.97246" lon="5.20884">
        <ele>1046.05</ele>
        <time>2017-04-23T09:19:40Z</time>
      </trkpt>
      <trkpt lat="44.97247" lon="5.20892">
        <ele>1049.42</ele>
        <time>2017-04-23T09:19:57Z</time>
      </trkpt>
      <trkpt lat="44.97246" lon="5.20901">
        <ele>1052.3</ele>
        <time>2017-04-23T09:20:14Z</time>
      </trkpt>
      <trkpt lat="44.97243" lon="5.20901">
        <ele>1054.7</ele>
        <time>2017-04-23T09:20:29Z</time>
      </trkpt>
      <trkpt lat="44.97242" lon="5.20905">
        <ele>1057.59</ele>
        <time>2017-04-23T09:20:45Z</time>
      </trkpt>
      <trkpt lat="44.97242" lon="5.20911">
        <ele>1060.47</ele>
        <time>2017-04-23T09:21:03Z</time>
      </trkpt>
      <trkpt lat="44.97236" lon="5.20916">
        <ele>1062.87</ele>
        <time>2017-04-23T09:21:18Z</time>
      </trkpt>
      <trkpt lat="44.97236" lon="5.20921">
        <ele>1064.8</ele>
        <time>2017-04-23T09:21:29Z</time>
      </trkpt>
      <trkpt lat="44.97235" lon="5.20929">
        <ele>1067.68</ele>
        <time>2017-04-23T09:21:44Z</time>
      </trkpt>
      <trkpt lat="44.97239" lon="5.20936">
        <ele>1070.08</ele>
        <time>2017-04-23T09:21:58Z</time>
      </trkpt>
      <trkpt lat="44.97241" lon="5.20942">
        <ele>1072.97</ele>
        <time>2017-04-23T09:22:13Z</time>
      </trkpt>
      <trkpt lat="44.97245" lon="5.2095">
        <ele>1075.85</ele>
        <time>2017-04-23T09:22:29Z</time>
      </trkpt>
      <trkpt lat="44.97247" lon="5.2096">
        <ele>1078.26</ele>
        <time>2017-04-23T09:22:44Z</time>
      </trkpt>
      <trkpt lat="44.97247" lon="5.20968">
        <ele>1081.62</ele>
        <time>2017-04-23T09:22:59Z</time>
      </trkpt>
      <trkpt lat="44.97246" lon="5.20971">
        <ele>1083.54</ele>
        <time>2017-04-23T09:23:14Z</time>
      </trkpt>
      <trkpt lat="44.97244" lon="5.20981">
        <ele>1087.39</ele>
        <time>2017-04-23T09:23:29Z</time>
      </trkpt>
      <trkpt lat="44.97247" lon="5.20985">
        <ele>1089.31</ele>
        <time>2017-04-23T09:23:41Z</time>
      </trkpt>
      <trkpt lat="44.97249" lon="5.20995">
        <ele>1092.2</ele>
        <time>2017-04-23T09:23:56Z</time>
      </trkpt>
      <trkpt lat="44.9725" lon="5.20998">
        <ele>1091.71</ele>
        <time>2017-04-23T09:24:11Z</time>
      </trkpt>
      <trkpt lat="44.97255" lon="5.21007">
        <ele>1092.68</ele>
        <time>2017-04-23T09:24:28Z</time>
      </trkpt>
      <trkpt lat="44.9726" lon="5.21014">
        <ele>1096.04</ele>
        <time>2017-04-23T09:24:42Z</time>
      </trkpt>
      <trkpt lat="44.97265" lon="5.21023">
        <ele>1098.44</ele>
        <time>2017-04-23T09:24:55Z</time>
      </trkpt>
      <trkpt lat="44.9727" lon="5.21033">
        <ele>1101.81</ele>
        <time>2017-04-23T09:25:12Z</time>
      </trkpt>
      <trkpt lat="44.97272" lon="5.21037">
        <ele>1103.73</ele>
        <time>2017-04-23T09:25:26Z</time>
      </trkpt>
      <trkpt lat="44.97274" lon="5.21043">
        <ele>1107.1</ele>
        <time>2017-04-23T09:25:43Z</time>
      </trkpt>
      <trkpt lat="44.97274" lon="5.21049">
        <ele>1109.98</ele>
        <time>2017-04-23T09:25:58Z</time>
      </trkpt>
      <trkpt lat="44.97276" lon="5.21053">
        <ele>1112.38</ele>
        <time>2017-04-23T09:26:12Z</time>
      </trkpt>
      <trkpt lat="44.97278" lon="5.21058">
        <ele>1115.27</ele>
        <time>2017-04-23T09:26:27Z</time>
      </trkpt>
      <trkpt lat="44.97279" lon="5.21063">
        <ele>1117.19</ele>
        <time>2017-04-23T09:26:40Z</time>
      </trkpt>
      <trkpt lat="44.97277" lon="5.21064">
        <ele>1119.59</ele>
        <time>2017-04-23T09:26:52Z</time>
      </trkpt>
      <trkpt lat="44.97272" lon="5.21062">
        <ele>1122</ele>
        <time>2017-04-23T09:27:04Z</time>
      </trkpt>
      <trkpt lat="44.97266" lon="5.21061">
        <ele>1124.4</ele>
        <time>2017-04-23T09:27:21Z</time>
      </trkpt>
      <trkpt lat="44.97265" lon="5.21057">
        <ele>1127.28</ele>
        <time>2017-04-23T09:27:37Z</time>
      </trkpt>
      <trkpt lat="44.97264" lon="5.21064">
        <ele>1129.21</ele>
        <time>2017-04-23T09:27:53Z</time>
      </trkpt>
      <trkpt lat="44.97263" lon="5.21064">
        <ele>1132.09</ele>
        <time>2017-04-23T09:28:09Z</time>
      </trkpt>
      <trkpt lat="44.97263" lon="5.21072">
        <ele>1134.49</ele>
        <time>2017-04-23T09:28:28Z</time>
      </trkpt>
      <trkpt lat="44.97264" lon="5.21083">
        <ele>1136.9</ele>
        <time>2017-04-23T09:28:43Z</time>
      </trkpt>
      <trkpt lat="44.97264" lon="5.21081">
        <ele>1139.3</ele>
        <time>2017-04-23T09:28:58Z</time>
      </trkpt>
      <trkpt lat="44.97266" lon="5.21072">
        <ele>1142.18</ele>
        <time>2017-04-23T09:29:13Z</time>
      </trkpt>
      <trkpt lat="44.97271" lon="5.21081">
        <ele>1143.63</ele>
        <time>2017-04-23T09:29:30Z</time>
      </trkpt>
      <trkpt lat="44.97278" lon="5.21084">
        <ele>1146.99</ele>
        <time>2017-04-23T09:29:43Z</time>
      </trkpt>
      <trkpt lat="44.97287" lon="5.21086">
        <ele>1149.39</ele>
        <time>2017-04-23T09:29:58Z</time>
      </trkpt>
      <trkpt lat="44.97293" lon="5.21105">
        <ele>1151.8</ele>
        <time>2017-04-23T09:30:15Z</time>
      </trkpt>
      <trkpt lat="44.97294" lon="5.21116">
        <ele>1155.16</ele>
        <time>2017-04-23T09:30:33Z</time>
      </trkpt>
      <trkpt lat="44.97295" lon="5.21121">
        <ele>1155.16</ele>
        <time>2017-04-23T09:44:30Z</time>
      </trkpt>
      <trkpt lat="44.97298" lon="5.21115">
        <ele>1158.05</ele>
        <time>2017-04-23T09:44:50Z</time>
      </trkpt>
      <trkpt lat="44.973" lon="5.21107">
        <ele>1160.93</ele>
        <time>2017-04-23T09:45:03Z</time>
      </trkpt>
      <trkpt lat="44.97302" lon="5.21099">
        <ele>1164.29</ele>
        <time>2017-04-23T09:45:16Z</time>
      </trkpt>
      <trkpt lat="44.97306" lon="5.21092">
        <ele>1167.66</ele>
        <time>2017-04-23T09:45:31Z</time>
      </trkpt>
      <trkpt lat="44.9731" lon="5.21084">
        <ele>1170.06</ele>
        <time>2017-04-23T09:45:48Z</time>
      </trkpt>
      <trkpt lat="44.97313" lon="5.21085">
        <ele>1170.54</ele>
        <time>2017-04-23T09:46:03Z</time>
      </trkpt>
      <trkpt lat="44.97315" lon="5.21087">
        <ele>1171.5</ele>
        <time>2017-04-23T09:46:18Z</time>
      </trkpt>
      <trkpt lat="44.97315" lon="5.21088">
        <ele>1169.58</ele>
        <time>2017-04-23T09:46:25Z</time>
      </trkpt>
      <trkpt lat="44.97316" lon="5.21088">
        <ele>1169.58</ele>
        <time>2017-04-23T09:46:45Z</time>
      </trkpt>
      <trkpt lat="44.97315" lon="5.21089">
        <ele>1169.58</ele>
        <time>2017-04-23T09:47:07Z</time>
      </trkpt>
      <trkpt lat="44.97315" lon="5.21088">
        <ele>1169.58</ele>
        <time>2017-04-23T09:47:34Z</time>
      </trkpt>
      <trkpt lat="44.97314" lon="5.21088">
        <ele>1169.58</ele>
        <time>2017-04-23T09:47:57Z</time>
      </trkpt>
      <trkpt lat="44.97314" lon="5.21088">
        <ele>1171.02</ele>
        <time>2017-04-23T09:48:02Z</time>
      </trkpt>
      <trkpt lat="44.97315" lon="5.21087">
        <ele>1170.06</ele>
        <time>2017-04-23T09:48:27Z</time>
      </trkpt>
      <trkpt lat="44.97314" lon="5.21087">
        <ele>1171.5</ele>
        <time>2017-04-23T09:48:48Z</time>
      </trkpt>
      <trkpt lat="44.97318" lon="5.21091">
        <ele>1169.1</ele>
        <time>2017-04-23T09:49:13Z</time>
      </trkpt>
      <trkpt lat="44.97319" lon="5.21092">
        <ele>1169.1</ele>
        <time>2017-04-23T09:49:14Z</time>
      </trkpt>
      <trkpt lat="44.97324" lon="5.21102">
        <ele>1165.74</ele>
        <time>2017-04-23T09:49:27Z</time>
      </trkpt>
      <trkpt lat="44.97325" lon="5.21106">
        <ele>1162.37</ele>
        <time>2017-04-23T09:49:35Z</time>
      </trkpt>
      <trkpt lat="44.97326" lon="5.2111">
        <ele>1160.93</ele>
        <time>2017-04-23T09:49:45Z</time>
      </trkpt>
      <trkpt lat="44.97331" lon="5.21115">
        <ele>1157.56</ele>
        <time>2017-04-23T09:50:00Z</time>
      </trkpt>
      <trkpt lat="44.97335" lon="5.21122">
        <ele>1154.2</ele>
        <time>2017-04-23T09:50:12Z</time>
      </trkpt>
      <trkpt lat="44.97335" lon="5.21123">
        <ele>1154.2</ele>
        <time>2017-04-23T09:50:13Z</time>
      </trkpt>
      <trkpt lat="44.97338" lon="5.21129">
        <ele>1150.84</ele>
        <time>2017-04-23T09:50:24Z</time>
      </trkpt>
      <trkpt lat="44.9734" lon="5.21135">
        <ele>1147.47</ele>
        <time>2017-04-23T09:50:37Z</time>
      </trkpt>
      <trkpt lat="44.97343" lon="5.21142">
        <ele>1144.11</ele>
        <time>2017-04-23T09:50:53Z</time>
      </trkpt>
      <trkpt lat="44.97347" lon="5.21148">
        <ele>1140.26</ele>
        <time>2017-04-23T09:51:04Z</time>
      </trkpt>
      <trkpt lat="44.97352" lon="5.21157">
        <ele>1136.9</ele>
        <time>2017-04-23T09:51:16Z</time>
      </trkpt>
      <trkpt lat="44.97352" lon="5.21158">
        <ele>1136.9</ele>
        <time>2017-04-23T09:51:17Z</time>
      </trkpt>
      <trkpt lat="44.97354" lon="5.21163">
        <ele>1133.53</ele>
        <time>2017-04-23T09:51:28Z</time>
      </trkpt>
      <trkpt lat="44.97357" lon="5.21173">
        <ele>1130.65</ele>
        <time>2017-04-23T09:51:41Z</time>
      </trkpt>
      <trkpt lat="44.97362" lon="5.21184">
        <ele>1127.28</ele>
        <time>2017-04-23T09:51:54Z</time>
      </trkpt>
      <trkpt lat="44.97367" lon="5.21196">
        <ele>1123.92</ele>
        <time>2017-04-23T09:52:06Z</time>
      </trkpt>
      <trkpt lat="44.97374" lon="5.2121">
        <ele>1121.52</ele>
        <time>2017-04-23T09:52:20Z</time>
      </trkpt>
      <trkpt lat="44.97383" lon="5.21217">
        <ele>1121.03</ele>
        <time>2017-04-23T09:52:34Z</time>
      </trkpt>
      <trkpt lat="44.97395" lon="5.21226">
        <ele>1123.92</ele>
        <time>2017-04-23T09:52:47Z</time>
      </trkpt>
      <trkpt lat="44.97404" lon="5.21228">
        <ele>1125.36</ele>
        <time>2017-04-23T09:52:54Z</time>
      </trkpt>
      <trkpt lat="44.97419" lon="5.21236">
        <ele>1128.73</ele>
        <time>2017-04-23T09:53:09Z</time>
      </trkpt>
      <trkpt lat="44.9743" lon="5.21245">
        <ele>1130.17</ele>
        <time>2017-04-23T09:53:23Z</time>
      </trkpt>
      <trkpt lat="44.97439" lon="5.21253">
        <ele>1132.09</ele>
        <time>2017-04-23T09:53:36Z</time>
      </trkpt>
      <trkpt lat="44.97446" lon="5.21258">
        <ele>1135.94</ele>
        <time>2017-04-23T09:53:49Z</time>
      </trkpt>
      <trkpt lat="44.97456" lon="5.21268">
        <ele>1137.38</ele>
        <time>2017-04-23T09:54:07Z</time>
      </trkpt>
      <trkpt lat="44.9746" lon="5.21275">
        <ele>1137.86</ele>
        <time>2017-04-23T09:54:21Z</time>
      </trkpt>
      <trkpt lat="44.97465" lon="5.21286">
        <ele>1137.86</ele>
        <time>2017-04-23T09:54:35Z</time>
      </trkpt>
      <trkpt lat="44.97465" lon="5.21287">
        <ele>1137.86</ele>
        <time>2017-04-23T09:54:36Z</time>
      </trkpt>
      <trkpt lat="44.97466" lon="5.21292">
        <ele>1135.94</ele>
        <time>2017-04-23T09:54:40Z</time>
      </trkpt>
      <trkpt lat="44.97471" lon="5.21296">
        <ele>1135.45</ele>
        <time>2017-04-23T09:54:47Z</time>
      </trkpt>
      <trkpt lat="44.9748" lon="5.21307">
        <ele>1135.45</ele>
        <time>2017-04-23T09:55:02Z</time>
      </trkpt>
      <trkpt lat="44.97488" lon="5.21319">
        <ele>1135.45</ele>
        <time>2017-04-23T09:55:14Z</time>
      </trkpt>
      <trkpt lat="44.97497" lon="5.2133">
        <ele>1134.49</ele>
        <time>2017-04-23T09:55:27Z</time>
      </trkpt>
      <trkpt lat="44.97509" lon="5.21345">
        <ele>1133.53</ele>
        <time>2017-04-23T09:55:41Z</time>
      </trkpt>
      <trkpt lat="44.97523" lon="5.21362">
        <ele>1133.53</ele>
        <time>2017-04-23T09:55:57Z</time>
      </trkpt>
      <trkpt lat="44.97532" lon="5.2138">
        <ele>1133.53</ele>
        <time>2017-04-23T09:56:12Z</time>
      </trkpt>
      <trkpt lat="44.97538" lon="5.21387">
        <ele>1133.05</ele>
        <time>2017-04-23T09:56:19Z</time>
      </trkpt>
      <trkpt lat="44.97542" lon="5.21393">
        <ele>1133.05</ele>
        <time>2017-04-23T09:56:24Z</time>
      </trkpt>
      <trkpt lat="44.97544" lon="5.21394">
        <ele>1134.01</ele>
        <time>2017-04-23T09:56:26Z</time>
      </trkpt>
      <trkpt lat="44.97558" lon="5.21403">
        <ele>1136.42</ele>
        <time>2017-04-23T09:56:41Z</time>
      </trkpt>
      <trkpt lat="44.97571" lon="5.21418">
        <ele>1137.38</ele>
        <time>2017-04-23T09:56:55Z</time>
      </trkpt>
      <trkpt lat="44.97581" lon="5.21429">
        <ele>1138.82</ele>
        <time>2017-04-23T09:57:10Z</time>
      </trkpt>
      <trkpt lat="44.97593" lon="5.21442">
        <ele>1140.26</ele>
        <time>2017-04-23T09:57:24Z</time>
      </trkpt>
      <trkpt lat="44.97599" lon="5.21454">
        <ele>1140.26</ele>
        <time>2017-04-23T09:57:37Z</time>
      </trkpt>
      <trkpt lat="44.976" lon="5.21459">
        <ele>1140.26</ele>
        <time>2017-04-23T09:57:56Z</time>
      </trkpt>
      <trkpt lat="44.97599" lon="5.2146">
        <ele>1140.26</ele>
        <time>2017-04-23T09:58:20Z</time>
      </trkpt>
      <trkpt lat="44.976" lon="5.21465">
        <ele>1138.82</ele>
        <time>2017-04-23T09:58:25Z</time>
      </trkpt>
      <trkpt lat="44.97609" lon="5.21479">
        <ele>1135.94</ele>
        <time>2017-04-23T09:58:39Z</time>
      </trkpt>
      <trkpt lat="44.9762" lon="5.21495">
        <ele>1135.45</ele>
        <time>2017-04-23T09:58:55Z</time>
      </trkpt>
      <trkpt lat="44.97624" lon="5.21502">
        <ele>1135.45</ele>
        <time>2017-04-23T09:59:03Z</time>
      </trkpt>
      <trkpt lat="44.97628" lon="5.21508">
        <ele>1135.45</ele>
        <time>2017-04-23T09:59:09Z</time>
      </trkpt>
      <trkpt lat="44.97634" lon="5.21513">
        <ele>1138.82</ele>
        <time>2017-04-23T09:59:22Z</time>
      </trkpt>
      <trkpt lat="44.97635" lon="5.21514">
        <ele>1138.34</ele>
        <time>2017-04-23T09:59:43Z</time>
      </trkpt>
      <trkpt lat="44.97635" lon="5.21514">
        <ele>1138.34</ele>
        <time>2017-04-23T10:00:08Z</time>
      </trkpt>
      <trkpt lat="44.9764" lon="5.21517">
        <ele>1138.34</ele>
        <time>2017-04-23T10:00:25Z</time>
      </trkpt>
      <trkpt lat="44.97643" lon="5.21523">
        <ele>1138.82</ele>
        <time>2017-04-23T10:00:31Z</time>
      </trkpt>
      <trkpt lat="44.97648" lon="5.21527">
        <ele>1137.86</ele>
        <time>2017-04-23T10:00:36Z</time>
      </trkpt>
      <trkpt lat="44.97652" lon="5.21528">
        <ele>1139.3</ele>
        <time>2017-04-23T10:00:40Z</time>
      </trkpt>
      <trkpt lat="44.9766" lon="5.21544">
        <ele>1137.38</ele>
        <time>2017-04-23T10:00:53Z</time>
      </trkpt>
      <trkpt lat="44.97665" lon="5.21547">
        <ele>1136.9</ele>
        <time>2017-04-23T10:00:58Z</time>
      </trkpt>
      <trkpt lat="44.97669" lon="5.21559">
        <ele>1134.49</ele>
        <time>2017-04-23T10:01:15Z</time>
      </trkpt>
      <trkpt lat="44.97673" lon="5.2157">
        <ele>1134.49</ele>
        <time>2017-04-23T10:01:27Z</time>
      </trkpt>
      <trkpt lat="44.97674" lon="5.21574">
        <ele>1134.01</ele>
        <time>2017-04-23T10:01:31Z</time>
      </trkpt>
      <trkpt lat="44.97676" lon="5.2158">
        <ele>1132.09</ele>
        <time>2017-04-23T10:01:35Z</time>
      </trkpt>
      <trkpt lat="44.97679" lon="5.21591">
        <ele>1129.21</ele>
        <time>2017-04-23T10:01:46Z</time>
      </trkpt>
      <trkpt lat="44.97681" lon="5.21596">
        <ele>1128.24</ele>
        <time>2017-04-23T10:01:51Z</time>
      </trkpt>
      <trkpt lat="44.97688" lon="5.21597">
        <ele>1128.24</ele>
        <time>2017-04-23T10:02:01Z</time>
      </trkpt>
      <trkpt lat="44.97693" lon="5.21599">
        <ele>1130.17</ele>
        <time>2017-04-23T10:02:08Z</time>
      </trkpt>
      <trkpt lat="44.97697" lon="5.21592">
        <ele>1133.53</ele>
        <time>2017-04-23T10:02:20Z</time>
      </trkpt>
      <trkpt lat="44.97701" lon="5.21587">
        <ele>1136.42</ele>
        <time>2017-04-23T10:02:34Z</time>
      </trkpt>
      <trkpt lat="44.97706" lon="5.21586">
        <ele>1138.34</ele>
        <time>2017-04-23T10:02:43Z</time>
      </trkpt>
      <trkpt lat="44.97713" lon="5.21591">
        <ele>1139.3</ele>
        <time>2017-04-23T10:02:51Z</time>
      </trkpt>
      <trkpt lat="44.9772" lon="5.21601">
        <ele>1139.3</ele>
        <time>2017-04-23T10:03:02Z</time>
      </trkpt>
      <trkpt lat="44.97731" lon="5.21608">
        <ele>1141.7</ele>
        <time>2017-04-23T10:03:19Z</time>
      </trkpt>
      <trkpt lat="44.97735" lon="5.21612">
        <ele>1142.18</ele>
        <time>2017-04-23T10:03:24Z</time>
      </trkpt>
      <trkpt lat="44.97744" lon="5.21621">
        <ele>1142.18</ele>
        <time>2017-04-23T10:03:37Z</time>
      </trkpt>
      <trkpt lat="44.97746" lon="5.21623">
        <ele>1140.74</ele>
        <time>2017-04-23T10:03:40Z</time>
      </trkpt>
      <trkpt lat="44.97754" lon="5.21634">
        <ele>1140.74</ele>
        <time>2017-04-23T10:03:54Z</time>
      </trkpt>
      <trkpt lat="44.9776" lon="5.2164">
        <ele>1140.74</ele>
        <time>2017-04-23T10:04:02Z</time>
      </trkpt>
      <trkpt lat="44.97768" lon="5.21654">
        <ele>1139.78</ele>
        <time>2017-04-23T10:04:15Z</time>
      </trkpt>
      <trkpt lat="44.97776" lon="5.21668">
        <ele>1137.86</ele>
        <time>2017-04-23T10:04:29Z</time>
      </trkpt>
      <trkpt lat="44.97782" lon="5.21681">
        <ele>1137.38</ele>
        <time>2017-04-23T10:04:43Z</time>
      </trkpt>
      <trkpt lat="44.97789" lon="5.21694">
        <ele>1134.49</ele>
        <time>2017-04-23T10:04:59Z</time>
      </trkpt>
      <trkpt lat="44.97795" lon="5.217">
        <ele>1134.49</ele>
        <time>2017-04-23T10:05:11Z</time>
      </trkpt>
      <trkpt lat="44.97805" lon="5.2171">
        <ele>1134.01</ele>
        <time>2017-04-23T10:05:27Z</time>
      </trkpt>
      <trkpt lat="44.97814" lon="5.21719">
        <ele>1134.01</ele>
        <time>2017-04-23T10:05:41Z</time>
      </trkpt>
      <trkpt lat="44.97819" lon="5.21725">
        <ele>1134.01</ele>
        <time>2017-04-23T10:05:47Z</time>
      </trkpt>
      <trkpt lat="44.97823" lon="5.21728">
        <ele>1135.45</ele>
        <time>2017-04-23T10:05:52Z</time>
      </trkpt>
      <trkpt lat="44.97831" lon="5.2174">
        <ele>1136.42</ele>
        <time>2017-04-23T10:06:07Z</time>
      </trkpt>
      <trkpt lat="44.9784" lon="5.21747">
        <ele>1136.9</ele>
        <time>2017-04-23T10:06:23Z</time>
      </trkpt>
      <trkpt lat="44.97848" lon="5.21754">
        <ele>1139.78</ele>
        <time>2017-04-23T10:06:37Z</time>
      </trkpt>
      <trkpt lat="44.97856" lon="5.21758">
        <ele>1142.66</ele>
        <time>2017-04-23T10:06:48Z</time>
      </trkpt>
      <trkpt lat="44.97862" lon="5.21762">
        <ele>1146.03</ele>
        <time>2017-04-23T10:07:00Z</time>
      </trkpt>
      <trkpt lat="44.97871" lon="5.21766">
        <ele>1147.47</ele>
        <time>2017-04-23T10:07:15Z</time>
      </trkpt>
      <trkpt lat="44.97879" lon="5.2177">
        <ele>1148.43</ele>
        <time>2017-04-23T10:07:29Z</time>
      </trkpt>
      <trkpt lat="44.97886" lon="5.21778">
        <ele>1149.39</ele>
        <time>2017-04-23T10:07:41Z</time>
      </trkpt>
      <trkpt lat="44.97886" lon="5.21786">
        <ele>1149.87</ele>
        <time>2017-04-23T10:08:00Z</time>
      </trkpt>
      <trkpt lat="44.97889" lon="5.21788">
        <ele>1150.35</ele>
        <time>2017-04-23T10:08:29Z</time>
      </trkpt>
      <trkpt lat="44.97889" lon="5.21788">
        <ele>1149.39</ele>
        <time>2017-04-23T10:10:10Z</time>
      </trkpt>
      <trkpt lat="44.97898" lon="5.21797">
        <ele>1148.91</ele>
        <time>2017-04-23T10:10:25Z</time>
      </trkpt>
      <trkpt lat="44.97904" lon="5.21812">
        <ele>1146.99</ele>
        <time>2017-04-23T10:10:37Z</time>
      </trkpt>
      <trkpt lat="44.97909" lon="5.21828">
        <ele>1144.11</ele>
        <time>2017-04-23T10:10:49Z</time>
      </trkpt>
      <trkpt lat="44.97915" lon="5.21841">
        <ele>1142.18</ele>
        <time>2017-04-23T10:11:03Z</time>
      </trkpt>
      <trkpt lat="44.97924" lon="5.21851">
        <ele>1141.7</ele>
        <time>2017-04-23T10:11:16Z</time>
      </trkpt>
      <trkpt lat="44.97932" lon="5.21862">
        <ele>1141.22</ele>
        <time>2017-04-23T10:11:30Z</time>
      </trkpt>
      <trkpt lat="44.97942" lon="5.21868">
        <ele>1144.59</ele>
        <time>2017-04-23T10:11:43Z</time>
      </trkpt>
      <trkpt lat="44.9795" lon="5.21873">
        <ele>1147.47</ele>
        <time>2017-04-23T10:11:56Z</time>
      </trkpt>
      <trkpt lat="44.97961" lon="5.21878">
        <ele>1150.84</ele>
        <time>2017-04-23T10:12:13Z</time>
      </trkpt>
      <trkpt lat="44.97969" lon="5.21879">
        <ele>1153.72</ele>
        <time>2017-04-23T10:12:26Z</time>
      </trkpt>
      <trkpt lat="44.9798" lon="5.21885">
        <ele>1156.6</ele>
        <time>2017-04-23T10:12:40Z</time>
      </trkpt>
      <trkpt lat="44.97994" lon="5.21897">
        <ele>1157.56</ele>
        <time>2017-04-23T10:12:56Z</time>
      </trkpt>
      <trkpt lat="44.97998" lon="5.21902">
        <ele>1156.12</ele>
        <time>2017-04-23T10:13:02Z</time>
      </trkpt>
      <trkpt lat="44.98009" lon="5.21916">
        <ele>1156.6</ele>
        <time>2017-04-23T10:13:17Z</time>
      </trkpt>
      <trkpt lat="44.98016" lon="5.21918">
        <ele>1159.49</ele>
        <time>2017-04-23T10:13:28Z</time>
      </trkpt>
      <trkpt lat="44.98026" lon="5.21927">
        <ele>1160.45</ele>
        <time>2017-04-23T10:13:42Z</time>
      </trkpt>
      <trkpt lat="44.98041" lon="5.21936">
        <ele>1161.89</ele>
        <time>2017-04-23T10:13:59Z</time>
      </trkpt>
      <trkpt lat="44.98054" lon="5.21944">
        <ele>1164.29</ele>
        <time>2017-04-23T10:14:14Z</time>
      </trkpt>
      <trkpt lat="44.98063" lon="5.21951">
        <ele>1164.29</ele>
        <time>2017-04-23T10:14:28Z</time>
      </trkpt>
      <trkpt lat="44.98066" lon="5.21954">
        <ele>1164.29</ele>
        <time>2017-04-23T10:14:32Z</time>
      </trkpt>
      <trkpt lat="44.98074" lon="5.21959">
        <ele>1164.77</ele>
        <time>2017-04-23T10:14:44Z</time>
      </trkpt>
      <trkpt lat="44.98084" lon="5.21965">
        <ele>1167.18</ele>
        <time>2017-04-23T10:14:58Z</time>
      </trkpt>
      <trkpt lat="44.98088" lon="5.21966">
        <ele>1167.66</ele>
        <time>2017-04-23T10:15:18Z</time>
      </trkpt>
      <trkpt lat="44.98097" lon="5.21965">
        <ele>1170.06</ele>
        <time>2017-04-23T10:15:33Z</time>
      </trkpt>
      <trkpt lat="44.98109" lon="5.21969">
        <ele>1171.98</ele>
        <time>2017-04-23T10:15:49Z</time>
      </trkpt>
      <trkpt lat="44.98119" lon="5.21977">
        <ele>1171.98</ele>
        <time>2017-04-23T10:16:02Z</time>
      </trkpt>
      <trkpt lat="44.98127" lon="5.21987">
        <ele>1170.54</ele>
        <time>2017-04-23T10:16:13Z</time>
      </trkpt>
      <trkpt lat="44.98132" lon="5.21996">
        <ele>1167.18</ele>
        <time>2017-04-23T10:16:23Z</time>
      </trkpt>
      <trkpt lat="44.98132" lon="5.21997">
        <ele>1167.18</ele>
        <time>2017-04-23T10:16:24Z</time>
      </trkpt>
      <trkpt lat="44.9814" lon="5.22008">
        <ele>1163.81</ele>
        <time>2017-04-23T10:16:35Z</time>
      </trkpt>
      <trkpt lat="44.9814" lon="5.22009">
        <ele>1163.81</ele>
        <time>2017-04-23T10:16:36Z</time>
      </trkpt>
      <trkpt lat="44.9815" lon="5.2202">
        <ele>1160.93</ele>
        <time>2017-04-23T10:16:51Z</time>
      </trkpt>
      <trkpt lat="44.98155" lon="5.22025">
        <ele>1160.93</ele>
        <time>2017-04-23T10:17:06Z</time>
      </trkpt>
      <trkpt lat="44.98161" lon="5.22034">
        <ele>1159.97</ele>
        <time>2017-04-23T10:20:02Z</time>
      </trkpt>
      <trkpt lat="44.9817" lon="5.22044">
        <ele>1158.05</ele>
        <time>2017-04-23T10:20:18Z</time>
      </trkpt>
      <trkpt lat="44.98179" lon="5.22051">
        <ele>1157.08</ele>
        <time>2017-04-23T10:20:33Z</time>
      </trkpt>
      <trkpt lat="44.98181" lon="5.22054">
        <ele>1156.6</ele>
        <time>2017-04-23T10:20:35Z</time>
      </trkpt>
      <trkpt lat="44.98192" lon="5.22066">
        <ele>1155.64</ele>
        <time>2017-04-23T10:20:51Z</time>
      </trkpt>
      <trkpt lat="44.98203" lon="5.22076">
        <ele>1153.24</ele>
        <time>2017-04-23T10:21:05Z</time>
      </trkpt>
      <trkpt lat="44.9821" lon="5.22082">
        <ele>1154.68</ele>
        <time>2017-04-23T10:21:14Z</time>
      </trkpt>
      <trkpt lat="44.9822" lon="5.2209">
        <ele>1156.12</ele>
        <time>2017-04-23T10:21:29Z</time>
      </trkpt>
      <trkpt lat="44.98228" lon="5.22095">
        <ele>1156.12</ele>
        <time>2017-04-23T10:21:42Z</time>
      </trkpt>
      <trkpt lat="44.98236" lon="5.221">
        <ele>1156.12</ele>
        <time>2017-04-23T10:21:55Z</time>
      </trkpt>
      <trkpt lat="44.9824" lon="5.22106">
        <ele>1156.6</ele>
        <time>2017-04-23T10:22:11Z</time>
      </trkpt>
      <trkpt lat="44.98243" lon="5.22108">
        <ele>1155.16</ele>
        <time>2017-04-23T10:22:16Z</time>
      </trkpt>
      <trkpt lat="44.98253" lon="5.22117">
        <ele>1154.68</ele>
        <time>2017-04-23T10:22:32Z</time>
      </trkpt>
      <trkpt lat="44.98262" lon="5.22125">
        <ele>1153.72</ele>
        <time>2017-04-23T10:22:47Z</time>
      </trkpt>
      <trkpt lat="44.98266" lon="5.22135">
        <ele>1150.35</ele>
        <time>2017-04-23T10:22:58Z</time>
      </trkpt>
      <trkpt lat="44.9827" lon="5.22146">
        <ele>1147.47</ele>
        <time>2017-04-23T10:23:07Z</time>
      </trkpt>
      <trkpt lat="44.98271" lon="5.2215">
        <ele>1147.47</ele>
        <time>2017-04-23T10:23:09Z</time>
      </trkpt>
      <trkpt lat="44.98279" lon="5.22166">
        <ele>1146.03</ele>
        <time>2017-04-23T10:23:23Z</time>
      </trkpt>
      <trkpt lat="44.98279" lon="5.22167">
        <ele>1145.07</ele>
        <time>2017-04-23T10:23:24Z</time>
      </trkpt>
      <trkpt lat="44.98285" lon="5.22174">
        <ele>1145.07</ele>
        <time>2017-04-23T10:23:31Z</time>
      </trkpt>
      <trkpt lat="44.98294" lon="5.22186">
        <ele>1145.07</ele>
        <time>2017-04-23T10:23:44Z</time>
      </trkpt>
      <trkpt lat="44.98305" lon="5.22196">
        <ele>1147.47</ele>
        <time>2017-04-23T10:23:58Z</time>
      </trkpt>
      <trkpt lat="44.98309" lon="5.22197">
        <ele>1147.95</ele>
        <time>2017-04-23T10:24:12Z</time>
      </trkpt>
      <trkpt lat="44.98313" lon="5.22199">
        <ele>1149.39</ele>
        <time>2017-04-23T10:24:24Z</time>
      </trkpt>
      <trkpt lat="44.98317" lon="5.22201">
        <ele>1153.24</ele>
        <time>2017-04-23T10:24:38Z</time>
      </trkpt>
      <trkpt lat="44.98325" lon="5.22201">
        <ele>1156.6</ele>
        <time>2017-04-23T10:24:53Z</time>
      </trkpt>
      <trkpt lat="44.98335" lon="5.22205">
        <ele>1159.49</ele>
        <time>2017-04-23T10:25:08Z</time>
      </trkpt>
      <trkpt lat="44.9834" lon="5.2221">
        <ele>1162.85</ele>
        <time>2017-04-23T10:25:18Z</time>
      </trkpt>
      <trkpt lat="44.98344" lon="5.22208">
        <ele>1165.74</ele>
        <time>2017-04-23T10:25:34Z</time>
      </trkpt>
      <trkpt lat="44.98352" lon="5.2221">
        <ele>1169.58</ele>
        <time>2017-04-23T10:25:50Z</time>
      </trkpt>
      <trkpt lat="44.98356" lon="5.22211">
        <ele>1171.98</ele>
        <time>2017-04-23T10:26:05Z</time>
      </trkpt>
      <trkpt lat="44.98363" lon="5.22213">
        <ele>1174.39</ele>
        <time>2017-04-23T10:26:19Z</time>
      </trkpt>
      <trkpt lat="44.98369" lon="5.22217">
        <ele>1175.83</ele>
        <time>2017-04-23T10:26:35Z</time>
      </trkpt>
      <trkpt lat="44.98375" lon="5.22221">
        <ele>1178.23</ele>
        <time>2017-04-23T10:26:50Z</time>
      </trkpt>
      <trkpt lat="44.98378" lon="5.22217">
        <ele>1181.6</ele>
        <time>2017-04-23T10:27:02Z</time>
      </trkpt>
      <trkpt lat="44.98385" lon="5.22218">
        <ele>1184.48</ele>
        <time>2017-04-23T10:27:20Z</time>
      </trkpt>
      <trkpt lat="44.98387" lon="5.2222">
        <ele>1184.96</ele>
        <time>2017-04-23T10:27:38Z</time>
      </trkpt>
      <trkpt lat="44.98392" lon="5.22229">
        <ele>1184.96</ele>
        <time>2017-04-23T10:27:55Z</time>
      </trkpt>
      <trkpt lat="44.98398" lon="5.22239">
        <ele>1184.96</ele>
        <time>2017-04-23T10:28:09Z</time>
      </trkpt>
      <trkpt lat="44.98403" lon="5.22249">
        <ele>1185.92</ele>
        <time>2017-04-23T10:28:25Z</time>
      </trkpt>
      <trkpt lat="44.98406" lon="5.22257">
        <ele>1184</ele>
        <time>2017-04-23T10:28:38Z</time>
      </trkpt>
      <trkpt lat="44.98406" lon="5.22257">
        <ele>1185.44</ele>
        <time>2017-04-23T10:28:40Z</time>
      </trkpt>
      <trkpt lat="44.9841" lon="5.22266">
        <ele>1185.92</ele>
        <time>2017-04-23T10:28:59Z</time>
      </trkpt>
      <trkpt lat="44.98415" lon="5.22274">
        <ele>1186.4</ele>
        <time>2017-04-23T10:29:16Z</time>
      </trkpt>
      <trkpt lat="44.98419" lon="5.22282">
        <ele>1188.81</ele>
        <time>2017-04-23T10:29:30Z</time>
      </trkpt>
      <trkpt lat="44.98427" lon="5.22292">
        <ele>1189.77</ele>
        <time>2017-04-23T10:29:44Z</time>
      </trkpt>
      <trkpt lat="44.98437" lon="5.22301">
        <ele>1192.17</ele>
        <time>2017-04-23T10:29:57Z</time>
      </trkpt>
      <trkpt lat="44.98446" lon="5.22313">
        <ele>1192.17</ele>
        <time>2017-04-23T10:30:11Z</time>
      </trkpt>
      <trkpt lat="44.98454" lon="5.22317">
        <ele>1194.09</ele>
        <time>2017-04-23T10:30:25Z</time>
      </trkpt>
      <trkpt lat="44.98464" lon="5.22321">
        <ele>1195.54</ele>
        <time>2017-04-23T10:30:37Z</time>
      </trkpt>
      <trkpt lat="44.98472" lon="5.22326">
        <ele>1196.02</ele>
        <time>2017-04-23T10:30:49Z</time>
      </trkpt>
      <trkpt lat="44.98479" lon="5.22331">
        <ele>1198.42</ele>
        <time>2017-04-23T10:31:00Z</time>
      </trkpt>
      <trkpt lat="44.98491" lon="5.22333">
        <ele>1199.86</ele>
        <time>2017-04-23T10:31:14Z</time>
      </trkpt>
      <trkpt lat="44.98504" lon="5.22348">
        <ele>1199.38</ele>
        <time>2017-04-23T10:31:31Z</time>
      </trkpt>
      <trkpt lat="44.9851" lon="5.22352">
        <ele>1196.5</ele>
        <time>2017-04-23T10:31:43Z</time>
      </trkpt>
      <trkpt lat="44.98521" lon="5.22362">
        <ele>1193.13</ele>
        <time>2017-04-23T10:31:55Z</time>
      </trkpt>
      <trkpt lat="44.98526" lon="5.22377">
        <ele>1190.25</ele>
        <time>2017-04-23T10:32:10Z</time>
      </trkpt>
      <trkpt lat="44.98534" lon="5.22394">
        <ele>1207.55</ele>
        <time>2017-04-23T11:37:53Z</time>
      </trkpt>
      <trkpt lat="44.98534" lon="5.224">
        <ele>1206.59</ele>
        <time>2017-04-23T11:38:11Z</time>
      </trkpt>
      <trkpt lat="44.98537" lon="5.22405">
        <ele>1207.55</ele>
        <time>2017-04-23T11:38:19Z</time>
      </trkpt>
      <trkpt lat="44.98545" lon="5.2242">
        <ele>1208.03</ele>
        <time>2017-04-23T11:38:34Z</time>
      </trkpt>
      <trkpt lat="44.98554" lon="5.22435">
        <ele>1208.51</ele>
        <time>2017-04-23T11:38:49Z</time>
      </trkpt>
      <trkpt lat="44.98564" lon="5.22446">
        <ele>1210.44</ele>
        <time>2017-04-23T11:39:03Z</time>
      </trkpt>
      <trkpt lat="44.98574" lon="5.22451">
        <ele>1211.88</ele>
        <time>2017-04-23T11:39:16Z</time>
      </trkpt>
      <trkpt lat="44.98585" lon="5.22452">
        <ele>1213.8</ele>
        <time>2017-04-23T11:39:31Z</time>
      </trkpt>
      <trkpt lat="44.98594" lon="5.22441">
        <ele>1215.24</ele>
        <time>2017-04-23T11:39:46Z</time>
      </trkpt>
      <trkpt lat="44.98603" lon="5.2243">
        <ele>1217.17</ele>
        <time>2017-04-23T11:40:01Z</time>
      </trkpt>
      <trkpt lat="44.98613" lon="5.22424">
        <ele>1220.53</ele>
        <time>2017-04-23T11:40:16Z</time>
      </trkpt>
      <trkpt lat="44.98625" lon="5.22429">
        <ele>1221.97</ele>
        <time>2017-04-23T11:40:32Z</time>
      </trkpt>
      <trkpt lat="44.98637" lon="5.22429">
        <ele>1223.42</ele>
        <time>2017-04-23T11:40:46Z</time>
      </trkpt>
      <trkpt lat="44.98646" lon="5.22431">
        <ele>1224.86</ele>
        <time>2017-04-23T11:40:58Z</time>
      </trkpt>
      <trkpt lat="44.9865" lon="5.22432">
        <ele>1224.86</ele>
        <time>2017-04-23T11:41:03Z</time>
      </trkpt>
      <trkpt lat="44.98662" lon="5.22432">
        <ele>1226.3</ele>
        <time>2017-04-23T11:41:15Z</time>
      </trkpt>
      <trkpt lat="44.98672" lon="5.22432">
        <ele>1226.78</ele>
        <time>2017-04-23T11:41:28Z</time>
      </trkpt>
      <trkpt lat="44.98681" lon="5.22427">
        <ele>1225.82</ele>
        <time>2017-04-23T11:41:36Z</time>
      </trkpt>
      <trkpt lat="44.98697" lon="5.22417">
        <ele>1223.42</ele>
        <time>2017-04-23T11:41:52Z</time>
      </trkpt>
      <trkpt lat="44.98712" lon="5.22416">
        <ele>1222.45</ele>
        <time>2017-04-23T11:42:07Z</time>
      </trkpt>
      <trkpt lat="44.98719" lon="5.22415">
        <ele>1223.9</ele>
        <time>2017-04-23T11:42:15Z</time>
      </trkpt>
      <trkpt lat="44.98733" lon="5.22419">
        <ele>1225.82</ele>
        <time>2017-04-23T11:42:29Z</time>
      </trkpt>
      <trkpt lat="44.98739" lon="5.22427">
        <ele>1226.3</ele>
        <time>2017-04-23T11:42:42Z</time>
      </trkpt>
      <trkpt lat="44.98738" lon="5.22438">
        <ele>1226.3</ele>
        <time>2017-04-23T11:42:58Z</time>
      </trkpt>
      <trkpt lat="44.98734" lon="5.22442">
        <ele>1225.34</ele>
        <time>2017-04-23T11:43:08Z</time>
      </trkpt>
      <trkpt lat="44.98732" lon="5.22462">
        <ele>1223.42</ele>
        <time>2017-04-23T11:43:24Z</time>
      </trkpt>
      <trkpt lat="44.98736" lon="5.22487">
        <ele>1221.01</ele>
        <time>2017-04-23T11:43:41Z</time>
      </trkpt>
      <trkpt lat="44.98746" lon="5.22508">
        <ele>1219.09</ele>
        <time>2017-04-23T11:43:59Z</time>
      </trkpt>
      <trkpt lat="44.98755" lon="5.22521">
        <ele>1219.57</ele>
        <time>2017-04-23T11:44:13Z</time>
      </trkpt>
      <trkpt lat="44.98756" lon="5.22522">
        <ele>1219.57</ele>
        <time>2017-04-23T11:44:28Z</time>
      </trkpt>
      <trkpt lat="44.98757" lon="5.2252">
        <ele>1220.05</ele>
        <time>2017-04-23T11:44:50Z</time>
      </trkpt>
      <trkpt lat="44.98764" lon="5.22522">
        <ele>1220.05</ele>
        <time>2017-04-23T11:45:01Z</time>
      </trkpt>
      <trkpt lat="44.98776" lon="5.22525">
        <ele>1221.97</ele>
        <time>2017-04-23T11:45:18Z</time>
      </trkpt>
      <trkpt lat="44.98792" lon="5.22531">
        <ele>1222.93</ele>
        <time>2017-04-23T11:45:34Z</time>
      </trkpt>
      <trkpt lat="44.98803" lon="5.22536">
        <ele>1222.93</ele>
        <time>2017-04-23T11:45:47Z</time>
      </trkpt>
      <trkpt lat="44.98812" lon="5.22532">
        <ele>1224.38</ele>
        <time>2017-04-23T11:46:00Z</time>
      </trkpt>
      <trkpt lat="44.98822" lon="5.22523">
        <ele>1226.3</ele>
        <time>2017-04-23T11:46:12Z</time>
      </trkpt>
      <trkpt lat="44.98833" lon="5.2251">
        <ele>1228.22</ele>
        <time>2017-04-23T11:46:26Z</time>
      </trkpt>
      <trkpt lat="44.9884" lon="5.22492">
        <ele>1228.7</ele>
        <time>2017-04-23T11:46:42Z</time>
      </trkpt>
      <trkpt lat="44.98852" lon="5.22495">
        <ele>1228.7</ele>
        <time>2017-04-23T11:46:55Z</time>
      </trkpt>
      <trkpt lat="44.98863" lon="5.22503">
        <ele>1226.3</ele>
        <time>2017-04-23T11:47:11Z</time>
      </trkpt>
      <trkpt lat="44.98865" lon="5.22505">
        <ele>1226.3</ele>
        <time>2017-04-23T11:47:28Z</time>
      </trkpt>
      <trkpt lat="44.98863" lon="5.22506">
        <ele>1225.82</ele>
        <time>2017-04-23T11:47:52Z</time>
      </trkpt>
      <trkpt lat="44.98864" lon="5.22505">
        <ele>1225.82</ele>
        <time>2017-04-23T11:48:05Z</time>
      </trkpt>
      <trkpt lat="44.98871" lon="5.22508">
        <ele>1225.82</ele>
        <time>2017-04-23T11:48:25Z</time>
      </trkpt>
      <trkpt lat="44.98883" lon="5.22522">
        <ele>1225.82</ele>
        <time>2017-04-23T11:48:40Z</time>
      </trkpt>
      <trkpt lat="44.98896" lon="5.22521">
        <ele>1225.34</ele>
        <time>2017-04-23T11:48:56Z</time>
      </trkpt>
      <trkpt lat="44.98909" lon="5.22524">
        <ele>1221.49</ele>
        <time>2017-04-23T11:49:09Z</time>
      </trkpt>
      <trkpt lat="44.98921" lon="5.2253">
        <ele>1219.57</ele>
        <time>2017-04-23T11:49:23Z</time>
      </trkpt>
      <trkpt lat="44.98935" lon="5.22552">
        <ele>1216.69</ele>
        <time>2017-04-23T11:49:39Z</time>
      </trkpt>
      <trkpt lat="44.98944" lon="5.22576">
        <ele>1213.8</ele>
        <time>2017-04-23T11:49:55Z</time>
      </trkpt>
      <trkpt lat="44.98952" lon="5.22589">
        <ele>1210.44</ele>
        <time>2017-04-23T11:50:07Z</time>
      </trkpt>
      <trkpt lat="44.98963" lon="5.22592">
        <ele>1207.55</ele>
        <time>2017-04-23T11:50:20Z</time>
      </trkpt>
      <trkpt lat="44.98974" lon="5.22592">
        <ele>1206.11</ele>
        <time>2017-04-23T11:50:34Z</time>
      </trkpt>
      <trkpt lat="44.98978" lon="5.22606">
        <ele>1202.75</ele>
        <time>2017-04-23T11:50:49Z</time>
      </trkpt>
      <trkpt lat="44.98981" lon="5.22612">
        <ele>1201.79</ele>
        <time>2017-04-23T11:50:54Z</time>
      </trkpt>
      <trkpt lat="44.98995" lon="5.2262">
        <ele>1199.38</ele>
        <time>2017-04-23T11:51:09Z</time>
      </trkpt>
      <trkpt lat="44.99009" lon="5.22616">
        <ele>1196.5</ele>
        <time>2017-04-23T11:51:24Z</time>
      </trkpt>
      <trkpt lat="44.99023" lon="5.22621">
        <ele>1193.13</ele>
        <time>2017-04-23T11:51:37Z</time>
      </trkpt>
      <trkpt lat="44.99031" lon="5.22625">
        <ele>1189.77</ele>
        <time>2017-04-23T11:51:48Z</time>
      </trkpt>
      <trkpt lat="44.9904" lon="5.22627">
        <ele>1188.81</ele>
        <time>2017-04-23T11:51:59Z</time>
      </trkpt>
      <trkpt lat="44.99054" lon="5.2263">
        <ele>1188.81</ele>
        <time>2017-04-23T11:52:13Z</time>
      </trkpt>
      <trkpt lat="44.99065" lon="5.22632">
        <ele>1188.33</ele>
        <time>2017-04-23T11:52:28Z</time>
      </trkpt>
      <trkpt lat="44.99075" lon="5.22638">
        <ele>1189.77</ele>
        <time>2017-04-23T11:52:42Z</time>
      </trkpt>
      <trkpt lat="44.99085" lon="5.22642">
        <ele>1192.17</ele>
        <time>2017-04-23T11:52:57Z</time>
      </trkpt>
      <trkpt lat="44.99093" lon="5.22646">
        <ele>1194.58</ele>
        <time>2017-04-23T11:53:14Z</time>
      </trkpt>
      <trkpt lat="44.991" lon="5.22642">
        <ele>1196.5</ele>
        <time>2017-04-23T11:53:32Z</time>
      </trkpt>
      <trkpt lat="44.99109" lon="5.2263">
        <ele>1199.86</ele>
        <time>2017-04-23T11:53:48Z</time>
      </trkpt>
      <trkpt lat="44.99113" lon="5.2262">
        <ele>1201.79</ele>
        <time>2017-04-23T11:54:04Z</time>
      </trkpt>
      <trkpt lat="44.99116" lon="5.22616">
        <ele>1205.15</ele>
        <time>2017-04-23T11:54:20Z</time>
      </trkpt>
      <trkpt lat="44.99123" lon="5.22607">
        <ele>1208.51</ele>
        <time>2017-04-23T11:54:38Z</time>
      </trkpt>
      <trkpt lat="44.99132" lon="5.22607">
        <ele>1210.92</ele>
        <time>2017-04-23T11:54:55Z</time>
      </trkpt>
      <trkpt lat="44.99135" lon="5.22605">
        <ele>1213.8</ele>
        <time>2017-04-23T11:55:16Z</time>
      </trkpt>
      <trkpt lat="44.99141" lon="5.22602">
        <ele>1216.69</ele>
        <time>2017-04-23T11:55:30Z</time>
      </trkpt>
      <trkpt lat="44.99145" lon="5.22609">
        <ele>1218.61</ele>
        <time>2017-04-23T11:55:46Z</time>
      </trkpt>
      <trkpt lat="44.99151" lon="5.22616">
        <ele>1220.53</ele>
        <time>2017-04-23T11:56:04Z</time>
      </trkpt>
      <trkpt lat="44.99158" lon="5.22616">
        <ele>1222.93</ele>
        <time>2017-04-23T11:56:19Z</time>
      </trkpt>
      <trkpt lat="44.99165" lon="5.22612">
        <ele>1225.82</ele>
        <time>2017-04-23T11:56:35Z</time>
      </trkpt>
      <trkpt lat="44.99175" lon="5.22604">
        <ele>1227.74</ele>
        <time>2017-04-23T11:56:51Z</time>
      </trkpt>
      <trkpt lat="44.99182" lon="5.226">
        <ele>1229.18</ele>
        <time>2017-04-23T11:57:08Z</time>
      </trkpt>
      <trkpt lat="44.99185" lon="5.2259">
        <ele>1231.11</ele>
        <time>2017-04-23T11:57:24Z</time>
      </trkpt>
      <trkpt lat="44.99187" lon="5.22576">
        <ele>1233.03</ele>
        <time>2017-04-23T11:57:40Z</time>
      </trkpt>
      <trkpt lat="44.99186" lon="5.2257">
        <ele>1234.47</ele>
        <time>2017-04-23T11:58:05Z</time>
      </trkpt>
      <trkpt lat="44.99185" lon="5.22569">
        <ele>1233.03</ele>
        <time>2017-04-23T11:58:21Z</time>
      </trkpt>
      <trkpt lat="44.99186" lon="5.22569">
        <ele>1233.03</ele>
        <time>2017-04-23T11:58:37Z</time>
      </trkpt>
      <trkpt lat="44.99187" lon="5.22573">
        <ele>1233.03</ele>
        <time>2017-04-23T11:58:58Z</time>
      </trkpt>
      <trkpt lat="44.99189" lon="5.22578">
        <ele>1233.03</ele>
        <time>2017-04-23T11:59:20Z</time>
      </trkpt>
      <trkpt lat="44.99195" lon="5.22579">
        <ele>1233.03</ele>
        <time>2017-04-23T11:59:35Z</time>
      </trkpt>
      <trkpt lat="44.99199" lon="5.22584">
        <ele>1233.03</ele>
        <time>2017-04-23T11:59:51Z</time>
      </trkpt>
      <trkpt lat="44.99203" lon="5.22591">
        <ele>1230.62</ele>
        <time>2017-04-23T12:00:09Z</time>
      </trkpt>
      <trkpt lat="44.99207" lon="5.22603">
        <ele>1227.74</ele>
        <time>2017-04-23T12:00:23Z</time>
      </trkpt>
      <trkpt lat="44.99213" lon="5.22607">
        <ele>1227.26</ele>
        <time>2017-04-23T12:00:37Z</time>
      </trkpt>
      <trkpt lat="44.99224" lon="5.22614">
        <ele>1230.14</ele>
        <time>2017-04-23T12:00:53Z</time>
      </trkpt>
      <trkpt lat="44.99233" lon="5.22621">
        <ele>1232.07</ele>
        <time>2017-04-23T12:01:06Z</time>
      </trkpt>
      <trkpt lat="44.99248" lon="5.22631">
        <ele>1233.51</ele>
        <time>2017-04-23T12:01:22Z</time>
      </trkpt>
      <trkpt lat="44.99249" lon="5.22633">
        <ele>1232.07</ele>
        <time>2017-04-23T12:01:24Z</time>
      </trkpt>
      <trkpt lat="44.99255" lon="5.22635">
        <ele>1232.55</ele>
        <time>2017-04-23T12:01:34Z</time>
      </trkpt>
      <trkpt lat="44.99263" lon="5.22638">
        <ele>1235.43</ele>
        <time>2017-04-23T12:01:50Z</time>
      </trkpt>
      <trkpt lat="44.99268" lon="5.22635">
        <ele>1237.35</ele>
        <time>2017-04-23T12:02:05Z</time>
      </trkpt>
      <trkpt lat="44.99276" lon="5.2263">
        <ele>1239.28</ele>
        <time>2017-04-23T12:02:18Z</time>
      </trkpt>
      <trkpt lat="44.99285" lon="5.22628">
        <ele>1241.2</ele>
        <time>2017-04-23T12:02:32Z</time>
      </trkpt>
      <trkpt lat="44.993" lon="5.22633">
        <ele>1240.24</ele>
        <time>2017-04-23T12:02:46Z</time>
      </trkpt>
      <trkpt lat="44.9931" lon="5.22652">
        <ele>1238.32</ele>
        <time>2017-04-23T12:03:00Z</time>
      </trkpt>
      <trkpt lat="44.99318" lon="5.22667">
        <ele>1234.95</ele>
        <time>2017-04-23T12:03:14Z</time>
      </trkpt>
      <trkpt lat="44.99331" lon="5.22674">
        <ele>1233.03</ele>
        <time>2017-04-23T12:03:31Z</time>
      </trkpt>
      <trkpt lat="44.99342" lon="5.22683">
        <ele>1232.55</ele>
        <time>2017-04-23T12:03:43Z</time>
      </trkpt>
      <trkpt lat="44.99352" lon="5.22682">
        <ele>1234.47</ele>
        <time>2017-04-23T12:03:54Z</time>
      </trkpt>
      <trkpt lat="44.99359" lon="5.22672">
        <ele>1237.35</ele>
        <time>2017-04-23T12:04:07Z</time>
      </trkpt>
      <trkpt lat="44.99363" lon="5.22662">
        <ele>1240.72</ele>
        <time>2017-04-23T12:04:18Z</time>
      </trkpt>
      <trkpt lat="44.99365" lon="5.22642">
        <ele>1241.68</ele>
        <time>2017-04-23T12:04:33Z</time>
      </trkpt>
      <trkpt lat="44.99367" lon="5.22632">
        <ele>1243.6</ele>
        <time>2017-04-23T12:04:48Z</time>
      </trkpt>
      <trkpt lat="44.99371" lon="5.22626">
        <ele>1246.97</ele>
        <time>2017-04-23T12:05:02Z</time>
      </trkpt>
      <trkpt lat="44.9938" lon="5.22625">
        <ele>1247.93</ele>
        <time>2017-04-23T12:05:16Z</time>
      </trkpt>
      <trkpt lat="44.99391" lon="5.22614">
        <ele>1250.81</ele>
        <time>2017-04-23T12:05:30Z</time>
      </trkpt>
      <trkpt lat="44.99399" lon="5.22608">
        <ele>1252.74</ele>
        <time>2017-04-23T12:05:45Z</time>
      </trkpt>
      <trkpt lat="44.99408" lon="5.22607">
        <ele>1256.1</ele>
        <time>2017-04-23T12:05:59Z</time>
      </trkpt>
      <trkpt lat="44.99417" lon="5.22609">
        <ele>1258.98</ele>
        <time>2017-04-23T12:06:14Z</time>
      </trkpt>
      <trkpt lat="44.99422" lon="5.2261">
        <ele>1261.39</ele>
        <time>2017-04-23T12:06:27Z</time>
      </trkpt>
      <trkpt lat="44.99436" lon="5.22611">
        <ele>1261.87</ele>
        <time>2017-04-23T12:06:44Z</time>
      </trkpt>
      <trkpt lat="44.99446" lon="5.2261">
        <ele>1262.35</ele>
        <time>2017-04-23T12:06:58Z</time>
      </trkpt>
      <trkpt lat="44.99457" lon="5.2262">
        <ele>1262.35</ele>
        <time>2017-04-23T12:07:11Z</time>
      </trkpt>
      <trkpt lat="44.99471" lon="5.22629">
        <ele>1262.35</ele>
        <time>2017-04-23T12:07:26Z</time>
      </trkpt>
      <trkpt lat="44.9948" lon="5.22628">
        <ele>1265.71</ele>
        <time>2017-04-23T12:07:40Z</time>
      </trkpt>
      <trkpt lat="44.99489" lon="5.22628">
        <ele>1268.6</ele>
        <time>2017-04-23T12:07:51Z</time>
      </trkpt>
      <trkpt lat="44.99497" lon="5.22622">
        <ele>1271</ele>
        <time>2017-04-23T12:08:06Z</time>
      </trkpt>
      <trkpt lat="44.99505" lon="5.22621">
        <ele>1274.36</ele>
        <time>2017-04-23T12:08:20Z</time>
      </trkpt>
      <trkpt lat="44.9951" lon="5.22622">
        <ele>1276.29</ele>
        <time>2017-04-23T12:08:35Z</time>
      </trkpt>
      <trkpt lat="44.99514" lon="5.22616">
        <ele>1279.65</ele>
        <time>2017-04-23T12:08:52Z</time>
      </trkpt>
      <trkpt lat="44.99518" lon="5.22613">
        <ele>1283.02</ele>
        <time>2017-04-23T12:09:03Z</time>
      </trkpt>
      <trkpt lat="44.99525" lon="5.22609">
        <ele>1285.9</ele>
        <time>2017-04-23T12:09:20Z</time>
      </trkpt>
      <trkpt lat="44.99529" lon="5.22604">
        <ele>1288.3</ele>
        <time>2017-04-23T12:09:30Z</time>
      </trkpt>
      <trkpt lat="44.9954" lon="5.22606">
        <ele>1289.27</ele>
        <time>2017-04-23T12:09:47Z</time>
      </trkpt>
      <trkpt lat="44.99547" lon="5.22607">
        <ele>1292.15</ele>
        <time>2017-04-23T12:09:57Z</time>
      </trkpt>
      <trkpt lat="44.99553" lon="5.22611">
        <ele>1290.23</ele>
        <time>2017-04-23T12:10:22Z</time>
      </trkpt>
      <trkpt lat="44.99559" lon="5.22615">
        <ele>1290.71</ele>
        <time>2017-04-23T12:16:17Z</time>
      </trkpt>
      <trkpt lat="44.99562" lon="5.2262">
        <ele>1290.71</ele>
        <time>2017-04-23T12:16:24Z</time>
      </trkpt>
      <trkpt lat="44.99563" lon="5.22623">
        <ele>1289.27</ele>
        <time>2017-04-23T12:16:27Z</time>
      </trkpt>
      <trkpt lat="44.99571" lon="5.22632">
        <ele>1286.86</ele>
        <time>2017-04-23T12:16:43Z</time>
      </trkpt>
      <trkpt lat="44.99578" lon="5.22644">
        <ele>1286.38</ele>
        <time>2017-04-23T12:16:56Z</time>
      </trkpt>
      <trkpt lat="44.9959" lon="5.22648">
        <ele>1286.86</ele>
        <time>2017-04-23T12:17:10Z</time>
      </trkpt>
      <trkpt lat="44.99601" lon="5.22647">
        <ele>1288.78</ele>
        <time>2017-04-23T12:17:24Z</time>
      </trkpt>
      <trkpt lat="44.99611" lon="5.22648">
        <ele>1289.27</ele>
        <time>2017-04-23T12:17:37Z</time>
      </trkpt>
      <trkpt lat="44.99617" lon="5.22647">
        <ele>1290.23</ele>
        <time>2017-04-23T12:17:50Z</time>
      </trkpt>
      <trkpt lat="44.99627" lon="5.22642">
        <ele>1292.63</ele>
        <time>2017-04-23T12:18:02Z</time>
      </trkpt>
      <trkpt lat="44.99637" lon="5.22642">
        <ele>1291.19</ele>
        <time>2017-04-23T12:18:14Z</time>
      </trkpt>
      <trkpt lat="44.99646" lon="5.22648">
        <ele>1289.75</ele>
        <time>2017-04-23T12:18:29Z</time>
      </trkpt>
      <trkpt lat="44.99654" lon="5.22653">
        <ele>1288.3</ele>
        <time>2017-04-23T12:18:44Z</time>
      </trkpt>
      <trkpt lat="44.99659" lon="5.22659">
        <ele>1284.94</ele>
        <time>2017-04-23T12:18:53Z</time>
      </trkpt>
      <trkpt lat="44.99669" lon="5.22664">
        <ele>1283.5</ele>
        <time>2017-04-23T12:19:05Z</time>
      </trkpt>
      <trkpt lat="44.99679" lon="5.22663">
        <ele>1281.57</ele>
        <time>2017-04-23T12:19:18Z</time>
      </trkpt>
      <trkpt lat="44.99688" lon="5.22658">
        <ele>1283.5</ele>
        <time>2017-04-23T12:19:30Z</time>
      </trkpt>
      <trkpt lat="44.99704" lon="5.2265">
        <ele>1283.5</ele>
        <time>2017-04-23T12:19:45Z</time>
      </trkpt>
      <trkpt lat="44.99716" lon="5.22649">
        <ele>1281.57</ele>
        <time>2017-04-23T12:19:54Z</time>
      </trkpt>
      <trkpt lat="44.99724" lon="5.22648">
        <ele>1283.02</ele>
        <time>2017-04-23T12:20:00Z</time>
      </trkpt>
      <trkpt lat="44.99731" lon="5.22651">
        <ele>1282.54</ele>
        <time>2017-04-23T12:20:13Z</time>
      </trkpt>
      <trkpt lat="44.99732" lon="5.22651">
        <ele>1282.06</ele>
        <time>2017-04-23T12:20:15Z</time>
      </trkpt>
      <trkpt lat="44.99743" lon="5.22654">
        <ele>1281.09</ele>
        <time>2017-04-23T12:20:27Z</time>
      </trkpt>
      <trkpt lat="44.99759" lon="5.22656">
        <ele>1281.57</ele>
        <time>2017-04-23T12:20:41Z</time>
      </trkpt>
      <trkpt lat="44.99767" lon="5.22655">
        <ele>1281.09</ele>
        <time>2017-04-23T12:20:49Z</time>
      </trkpt>
      <trkpt lat="44.99769" lon="5.22654">
        <ele>1282.54</ele>
        <time>2017-04-23T12:20:51Z</time>
      </trkpt>
      <trkpt lat="44.99781" lon="5.22653">
        <ele>1283.5</ele>
        <time>2017-04-23T12:21:04Z</time>
      </trkpt>
      <trkpt lat="44.99784" lon="5.22652">
        <ele>1283.5</ele>
        <time>2017-04-23T12:21:07Z</time>
      </trkpt>
      <trkpt lat="44.998" lon="5.22654">
        <ele>1282.54</ele>
        <time>2017-04-23T12:21:24Z</time>
      </trkpt>
      <trkpt lat="44.99802" lon="5.22653">
        <ele>1282.54</ele>
        <time>2017-04-23T12:21:28Z</time>
      </trkpt>
      <trkpt lat="44.99815" lon="5.22651">
        <ele>1282.54</ele>
        <time>2017-04-23T12:21:42Z</time>
      </trkpt>
      <trkpt lat="44.99823" lon="5.22653">
        <ele>1282.54</ele>
        <time>2017-04-23T12:21:57Z</time>
      </trkpt>
      <trkpt lat="44.99829" lon="5.22653">
        <ele>1283.5</ele>
        <time>2017-04-23T12:22:15Z</time>
      </trkpt>
      <trkpt lat="44.99831" lon="5.22652">
        <ele>1283.98</ele>
        <time>2017-04-23T12:22:37Z</time>
      </trkpt>
      <trkpt lat="44.99834" lon="5.22651">
        <ele>1284.46</ele>
        <time>2017-04-23T12:22:52Z</time>
      </trkpt>
      <trkpt lat="44.99838" lon="5.22657">
        <ele>1282.54</ele>
        <time>2017-04-23T12:23:08Z</time>
      </trkpt>
      <trkpt lat="44.99845" lon="5.22661">
        <ele>1280.61</ele>
        <time>2017-04-23T12:23:17Z</time>
      </trkpt>
      <trkpt lat="44.99859" lon="5.22661">
        <ele>1279.17</ele>
        <time>2017-04-23T12:23:30Z</time>
      </trkpt>
      <trkpt lat="44.99879" lon="5.22657">
        <ele>1280.13</ele>
        <time>2017-04-23T12:23:47Z</time>
      </trkpt>
      <trkpt lat="44.9989" lon="5.2265">
        <ele>1281.09</ele>
        <time>2017-04-23T12:23:58Z</time>
      </trkpt>
      <trkpt lat="44.999" lon="5.22655">
        <ele>1279.65</ele>
        <time>2017-04-23T12:24:14Z</time>
      </trkpt>
      <trkpt lat="44.99901" lon="5.22657">
        <ele>1279.17</ele>
        <time>2017-04-23T12:24:28Z</time>
      </trkpt>
      <trkpt lat="44.99901" lon="5.22658">
        <ele>1279.17</ele>
        <time>2017-04-23T12:24:50Z</time>
      </trkpt>
      <trkpt lat="44.99901" lon="5.22659">
        <ele>1279.17</ele>
        <time>2017-04-23T12:25:11Z</time>
      </trkpt>
      <trkpt lat="44.99902" lon="5.22658">
        <ele>1279.17</ele>
        <time>2017-04-23T12:25:35Z</time>
      </trkpt>
      <trkpt lat="44.99904" lon="5.22656">
        <ele>1280.13</ele>
        <time>2017-04-23T12:25:48Z</time>
      </trkpt>
      <trkpt lat="44.99906" lon="5.22657">
        <ele>1279.17</ele>
        <time>2017-04-23T12:25:52Z</time>
      </trkpt>
      <trkpt lat="44.99917" lon="5.22663">
        <ele>1276.77</ele>
        <time>2017-04-23T12:26:07Z</time>
      </trkpt>
      <trkpt lat="44.99924" lon="5.22668">
        <ele>1273.4</ele>
        <time>2017-04-23T12:26:22Z</time>
      </trkpt>
      <trkpt lat="44.9994" lon="5.22671">
        <ele>1271</ele>
        <time>2017-04-23T12:26:36Z</time>
      </trkpt>
      <trkpt lat="44.99955" lon="5.2267">
        <ele>1268.6</ele>
        <time>2017-04-23T12:26:50Z</time>
      </trkpt>
      <trkpt lat="44.99977" lon="5.22674">
        <ele>1268.12</ele>
        <time>2017-04-23T12:27:03Z</time>
      </trkpt>
      <trkpt lat="44.99989" lon="5.22683">
        <ele>1268.12</ele>
        <time>2017-04-23T12:27:19Z</time>
      </trkpt>
      <trkpt lat="44.99992" lon="5.22688">
        <ele>1267.16</ele>
        <time>2017-04-23T12:27:39Z</time>
      </trkpt>
      <trkpt lat="44.99997" lon="5.22684">
        <ele>1266.67</ele>
        <time>2017-04-23T12:32:30Z</time>
      </trkpt>
      <trkpt lat="44.99999" lon="5.22681">
        <ele>1263.31</ele>
        <time>2017-04-23T12:32:39Z</time>
      </trkpt>
      <trkpt lat="44.99998" lon="5.22674">
        <ele>1259.94</ele>
        <time>2017-04-23T12:32:54Z</time>
      </trkpt>
      <trkpt lat="44.99995" lon="5.22667">
        <ele>1257.06</ele>
        <time>2017-04-23T12:33:07Z</time>
      </trkpt>
      <trkpt lat="44.99997" lon="5.2266">
        <ele>1254.18</ele>
        <time>2017-04-23T12:33:21Z</time>
      </trkpt>
      <trkpt lat="44.99996" lon="5.22657">
        <ele>1253.7</ele>
        <time>2017-04-23T12:33:42Z</time>
      </trkpt>
      <trkpt lat="44.99996" lon="5.2266">
        <ele>1253.7</ele>
        <time>2017-04-23T12:34:06Z</time>
      </trkpt>
      <trkpt lat="44.99994" lon="5.22647">
        <ele>1251.77</ele>
        <time>2017-04-23T12:34:20Z</time>
      </trkpt>
      <trkpt lat="44.99993" lon="5.22638">
        <ele>1248.89</ele>
        <time>2017-04-23T12:34:28Z</time>
      </trkpt>
      <trkpt lat="44.99987" lon="5.22628">
        <ele>1245.04</ele>
        <time>2017-04-23T12:34:40Z</time>
      </trkpt>
      <trkpt lat="44.99985" lon="5.22618">
        <ele>1243.6</ele>
        <time>2017-04-23T12:34:54Z</time>
      </trkpt>
      <trkpt lat="44.99983" lon="5.22609">
        <ele>1240.24</ele>
        <time>2017-04-23T12:35:17Z</time>
      </trkpt>
      <trkpt lat="44.99981" lon="5.22605">
        <ele>1237.35</ele>
        <time>2017-04-23T12:35:24Z</time>
      </trkpt>
      <trkpt lat="44.99978" lon="5.22595">
        <ele>1233.99</ele>
        <time>2017-04-23T12:35:32Z</time>
      </trkpt>
      <trkpt lat="44.99975" lon="5.22583">
        <ele>1230.14</ele>
        <time>2017-04-23T12:35:41Z</time>
      </trkpt>
      <trkpt lat="44.99978" lon="5.22575">
        <ele>1226.78</ele>
        <time>2017-04-23T12:35:50Z</time>
      </trkpt>
      <trkpt lat="44.99983" lon="5.22571">
        <ele>1223.42</ele>
        <time>2017-04-23T12:35:57Z</time>
      </trkpt>
      <trkpt lat="44.99984" lon="5.22567">
        <ele>1221.97</ele>
        <time>2017-04-23T12:36:00Z</time>
      </trkpt>
      <trkpt lat="44.99986" lon="5.22555">
        <ele>1218.61</ele>
        <time>2017-04-23T12:36:07Z</time>
      </trkpt>
      <trkpt lat="44.99988" lon="5.22547">
        <ele>1216.21</ele>
        <time>2017-04-23T12:36:13Z</time>
      </trkpt>
      <trkpt lat="44.9999" lon="5.22544">
        <ele>1217.65</ele>
        <time>2017-04-23T12:36:27Z</time>
      </trkpt>
      <trkpt lat="44.99989" lon="5.22541">
        <ele>1215.72</ele>
        <time>2017-04-23T12:36:40Z</time>
      </trkpt>
      <trkpt lat="44.99992" lon="5.22535">
        <ele>1214.28</ele>
        <time>2017-04-23T12:36:46Z</time>
      </trkpt>
      <trkpt lat="44.99994" lon="5.22532">
        <ele>1211.88</ele>
        <time>2017-04-23T12:36:49Z</time>
      </trkpt>
      <trkpt lat="44.99999" lon="5.22525">
        <ele>1207.55</ele>
        <time>2017-04-23T12:36:57Z</time>
      </trkpt>
      <trkpt lat="45" lon="5.22524">
        <ele>1207.55</ele>
        <time>2017-04-23T12:36:58Z</time>
      </trkpt>
      <trkpt lat="45.00005" lon="5.22516">
        <ele>1205.63</ele>
        <time>2017-04-23T12:37:05Z</time>
      </trkpt>
      <trkpt lat="45.00009" lon="5.22508">
        <ele>1201.79</ele>
        <time>2017-04-23T12:37:11Z</time>
      </trkpt>
      <trkpt lat="45.00015" lon="5.225">
        <ele>1199.38</ele>
        <time>2017-04-23T12:37:18Z</time>
      </trkpt>
      <trkpt lat="45.00017" lon="5.22497">
        <ele>1197.94</ele>
        <time>2017-04-23T12:37:21Z</time>
      </trkpt>
      <trkpt lat="45.00022" lon="5.22489">
        <ele>1195.54</ele>
        <time>2017-04-23T12:37:27Z</time>
      </trkpt>
      <trkpt lat="45.00027" lon="5.2248">
        <ele>1192.17</ele>
        <time>2017-04-23T12:37:34Z</time>
      </trkpt>
      <trkpt lat="45.00027" lon="5.22479">
        <ele>1192.17</ele>
        <time>2017-04-23T12:37:35Z</time>
      </trkpt>
      <trkpt lat="45.00033" lon="5.22469">
        <ele>1189.29</ele>
        <time>2017-04-23T12:37:43Z</time>
      </trkpt>
      <trkpt lat="45.00037" lon="5.22463">
        <ele>1185.92</ele>
        <time>2017-04-23T12:37:48Z</time>
      </trkpt>
      <trkpt lat="45.00038" lon="5.22462">
        <ele>1185.92</ele>
        <time>2017-04-23T12:37:49Z</time>
      </trkpt>
      <trkpt lat="45.00042" lon="5.22453">
        <ele>1184.96</ele>
        <time>2017-04-23T12:37:58Z</time>
      </trkpt>
      <trkpt lat="45.00048" lon="5.22446">
        <ele>1181.6</ele>
        <time>2017-04-23T12:38:10Z</time>
      </trkpt>
      <trkpt lat="45.00051" lon="5.22444">
        <ele>1180.64</ele>
        <time>2017-04-23T12:38:12Z</time>
      </trkpt>
      <trkpt lat="45.00057" lon="5.22437">
        <ele>1176.79</ele>
        <time>2017-04-23T12:38:18Z</time>
      </trkpt>
      <trkpt lat="45.00058" lon="5.22436">
        <ele>1176.79</ele>
        <time>2017-04-23T12:38:19Z</time>
      </trkpt>
      <trkpt lat="45.0006" lon="5.22433">
        <ele>1175.35</ele>
        <time>2017-04-23T12:38:22Z</time>
      </trkpt>
      <trkpt lat="45.00064" lon="5.22428">
        <ele>1173.91</ele>
        <time>2017-04-23T12:38:27Z</time>
      </trkpt>
      <trkpt lat="45.00067" lon="5.22419">
        <ele>1171.5</ele>
        <time>2017-04-23T12:38:33Z</time>
      </trkpt>
      <trkpt lat="45.00072" lon="5.22411">
        <ele>1170.06</ele>
        <time>2017-04-23T12:38:39Z</time>
      </trkpt>
      <trkpt lat="45.00076" lon="5.22404">
        <ele>1166.7</ele>
        <time>2017-04-23T12:38:45Z</time>
      </trkpt>
      <trkpt lat="45.00077" lon="5.22403">
        <ele>1166.7</ele>
        <time>2017-04-23T12:38:46Z</time>
      </trkpt>
      <trkpt lat="45.00081" lon="5.22398">
        <ele>1164.77</ele>
        <time>2017-04-23T12:38:50Z</time>
      </trkpt>
      <trkpt lat="45.00083" lon="5.22393">
        <ele>1163.33</ele>
        <time>2017-04-23T12:38:54Z</time>
      </trkpt>
      <trkpt lat="45.00086" lon="5.22388">
        <ele>1162.37</ele>
        <time>2017-04-23T12:38:58Z</time>
      </trkpt>
      <trkpt lat="45.00088" lon="5.22384">
        <ele>1159.97</ele>
        <time>2017-04-23T12:39:01Z</time>
      </trkpt>
      <trkpt lat="45.00093" lon="5.22372">
        <ele>1156.12</ele>
        <time>2017-04-23T12:39:09Z</time>
      </trkpt>
      <trkpt lat="45.00106" lon="5.22346">
        <ele>1153.24</ele>
        <time>2017-04-23T12:39:26Z</time>
      </trkpt>
      <trkpt lat="45.00113" lon="5.2233">
        <ele>1149.87</ele>
        <time>2017-04-23T12:39:36Z</time>
      </trkpt>
      <trkpt lat="45.00117" lon="5.22319">
        <ele>1149.39</ele>
        <time>2017-04-23T12:39:44Z</time>
      </trkpt>
      <trkpt lat="45.00119" lon="5.22316">
        <ele>1147.95</ele>
        <time>2017-04-23T12:39:49Z</time>
      </trkpt>
      <trkpt lat="45.00123" lon="5.22293">
        <ele>1145.07</ele>
        <time>2017-04-23T12:40:04Z</time>
      </trkpt>
      <trkpt lat="45.00128" lon="5.22267">
        <ele>1141.7</ele>
        <time>2017-04-23T12:40:19Z</time>
      </trkpt>
      <trkpt lat="45.00134" lon="5.22247">
        <ele>1138.34</ele>
        <time>2017-04-23T12:40:31Z</time>
      </trkpt>
      <trkpt lat="45.00137" lon="5.22236">
        <ele>1136.9</ele>
        <time>2017-04-23T12:40:37Z</time>
      </trkpt>
      <trkpt lat="45.00137" lon="5.22207">
        <ele>1134.01</ele>
        <time>2017-04-23T12:40:53Z</time>
      </trkpt>
      <trkpt lat="45.00138" lon="5.2218">
        <ele>1132.57</ele>
        <time>2017-04-23T12:41:10Z</time>
      </trkpt>
      <trkpt lat="45.00138" lon="5.22176">
        <ele>1132.57</ele>
        <time>2017-04-23T12:41:13Z</time>
      </trkpt>
      <trkpt lat="45.00138" lon="5.22156">
        <ele>1131.61</ele>
        <time>2017-04-23T12:41:26Z</time>
      </trkpt>
      <trkpt lat="45.00136" lon="5.22144">
        <ele>1132.09</ele>
        <time>2017-04-23T12:47:51Z</time>
      </trkpt>
      <trkpt lat="45.00127" lon="5.22155">
        <ele>1132.09</ele>
        <time>2017-04-23T12:48:05Z</time>
      </trkpt>
      <trkpt lat="45.00124" lon="5.22157">
        <ele>1133.05</ele>
        <time>2017-04-23T12:48:28Z</time>
      </trkpt>
      <trkpt lat="45.00121" lon="5.2216">
        <ele>1132.09</ele>
        <time>2017-04-23T12:48:50Z</time>
      </trkpt>
      <trkpt lat="45.00112" lon="5.22167">
        <ele>1132.09</ele>
        <time>2017-04-23T12:49:03Z</time>
      </trkpt>
      <trkpt lat="45.00106" lon="5.22179">
        <ele>1129.21</ele>
        <time>2017-04-23T12:49:14Z</time>
      </trkpt>
      <trkpt lat="45.00098" lon="5.22189">
        <ele>1126.32</ele>
        <time>2017-04-23T12:49:24Z</time>
      </trkpt>
      <trkpt lat="45.00089" lon="5.22201">
        <ele>1123.44</ele>
        <time>2017-04-23T12:49:37Z</time>
      </trkpt>
      <trkpt lat="45.00086" lon="5.2221">
        <ele>1121.03</ele>
        <time>2017-04-23T12:49:45Z</time>
      </trkpt>
      <trkpt lat="45.00077" lon="5.22223">
        <ele>1118.63</ele>
        <time>2017-04-23T12:49:57Z</time>
      </trkpt>
      <trkpt lat="45.00066" lon="5.22239">
        <ele>1117.67</ele>
        <time>2017-04-23T12:50:10Z</time>
      </trkpt>
      <trkpt lat="45.0005" lon="5.22241">
        <ele>1114.79</ele>
        <time>2017-04-23T12:50:24Z</time>
      </trkpt>
      <trkpt lat="45.00032" lon="5.22242">
        <ele>1111.42</ele>
        <time>2017-04-23T12:50:37Z</time>
      </trkpt>
      <trkpt lat="45.00013" lon="5.22244">
        <ele>1109.02</ele>
        <time>2017-04-23T12:50:52Z</time>
      </trkpt>
      <trkpt lat="44.99998" lon="5.22242">
        <ele>1107.1</ele>
        <time>2017-04-23T12:51:08Z</time>
      </trkpt>
      <trkpt lat="44.99982" lon="5.22233">
        <ele>1103.73</ele>
        <time>2017-04-23T12:51:21Z</time>
      </trkpt>
      <trkpt lat="44.99976" lon="5.22231">
        <ele>1102.29</ele>
        <time>2017-04-23T12:51:25Z</time>
      </trkpt>
      <trkpt lat="44.99956" lon="5.22221">
        <ele>1100.37</ele>
        <time>2017-04-23T12:51:39Z</time>
      </trkpt>
      <trkpt lat="44.99939" lon="5.22213">
        <ele>1097</ele>
        <time>2017-04-23T12:51:53Z</time>
      </trkpt>
      <trkpt lat="44.99926" lon="5.22204">
        <ele>1095.56</ele>
        <time>2017-04-23T12:52:05Z</time>
      </trkpt>
      <trkpt lat="44.99909" lon="5.22193">
        <ele>1092.2</ele>
        <time>2017-04-23T12:52:19Z</time>
      </trkpt>
      <trkpt lat="44.99895" lon="5.22182">
        <ele>1089.79</ele>
        <time>2017-04-23T12:52:33Z</time>
      </trkpt>
      <trkpt lat="44.99882" lon="5.22173">
        <ele>1086.43</ele>
        <time>2017-04-23T12:52:45Z</time>
      </trkpt>
      <trkpt lat="44.99864" lon="5.22153">
        <ele>1083.06</ele>
        <time>2017-04-23T12:52:57Z</time>
      </trkpt>
      <trkpt lat="44.99848" lon="5.22148">
        <ele>1080.66</ele>
        <time>2017-04-23T12:53:10Z</time>
      </trkpt>
      <trkpt lat="44.99838" lon="5.22142">
        <ele>1077.78</ele>
        <time>2017-04-23T12:53:21Z</time>
      </trkpt>
      <trkpt lat="44.99821" lon="5.22132">
        <ele>1075.37</ele>
        <time>2017-04-23T12:53:37Z</time>
      </trkpt>
      <trkpt lat="44.99815" lon="5.22121">
        <ele>1072.97</ele>
        <time>2017-04-23T12:53:50Z</time>
      </trkpt>
      <trkpt lat="44.99814" lon="5.22117">
        <ele>1072.97</ele>
        <time>2017-04-23T12:54:12Z</time>
      </trkpt>
      <trkpt lat="44.9981" lon="5.22114">
        <ele>1072.97</ele>
        <time>2017-04-23T12:54:32Z</time>
      </trkpt>
      <trkpt lat="44.99809" lon="5.22111">
        <ele>1072.49</ele>
        <time>2017-04-23T12:54:57Z</time>
      </trkpt>
      <trkpt lat="44.99806" lon="5.22099">
        <ele>1072.01</ele>
        <time>2017-04-23T12:55:18Z</time>
      </trkpt>
      <trkpt lat="44.99805" lon="5.2209">
        <ele>1069.12</ele>
        <time>2017-04-23T12:55:26Z</time>
      </trkpt>
      <trkpt lat="44.99803" lon="5.22083">
        <ele>1065.76</ele>
        <time>2017-04-23T12:55:35Z</time>
      </trkpt>
      <trkpt lat="44.99804" lon="5.22076">
        <ele>1062.39</ele>
        <time>2017-04-23T12:55:43Z</time>
      </trkpt>
      <trkpt lat="44.99811" lon="5.22074">
        <ele>1059.51</ele>
        <time>2017-04-23T12:55:54Z</time>
      </trkpt>
      <trkpt lat="44.99824" lon="5.22073">
        <ele>1057.11</ele>
        <time>2017-04-23T12:56:08Z</time>
      </trkpt>
      <trkpt lat="44.99832" lon="5.22073">
        <ele>1053.74</ele>
        <time>2017-04-23T12:56:18Z</time>
      </trkpt>
      <trkpt lat="44.99839" lon="5.22071">
        <ele>1050.38</ele>
        <time>2017-04-23T12:56:26Z</time>
      </trkpt>
      <trkpt lat="44.99845" lon="5.22069">
        <ele>1049.42</ele>
        <time>2017-04-23T12:56:31Z</time>
      </trkpt>
      <trkpt lat="44.99859" lon="5.22069">
        <ele>1046.53</ele>
        <time>2017-04-23T12:56:42Z</time>
      </trkpt>
      <trkpt lat="44.99875" lon="5.22071">
        <ele>1043.17</ele>
        <time>2017-04-23T12:56:55Z</time>
      </trkpt>
      <trkpt lat="44.99888" lon="5.22075">
        <ele>1040.76</ele>
        <time>2017-04-23T12:57:07Z</time>
      </trkpt>
      <trkpt lat="44.99902" lon="5.22076">
        <ele>1036.92</ele>
        <time>2017-04-23T12:57:17Z</time>
      </trkpt>
      <trkpt lat="44.99915" lon="5.22073">
        <ele>1034.04</ele>
        <time>2017-04-23T12:57:27Z</time>
      </trkpt>
      <trkpt lat="44.99921" lon="5.22073">
        <ele>1033.07</ele>
        <time>2017-04-23T12:57:31Z</time>
      </trkpt>
      <trkpt lat="44.99924" lon="5.22072">
        <ele>1032.11</ele>
        <time>2017-04-23T12:57:33Z</time>
      </trkpt>
      <trkpt lat="44.99939" lon="5.22074">
        <ele>1028.75</ele>
        <time>2017-04-23T12:57:45Z</time>
      </trkpt>
      <trkpt lat="44.99959" lon="5.22061">
        <ele>1026.83</ele>
        <time>2017-04-23T12:57:57Z</time>
      </trkpt>
      <trkpt lat="44.99973" lon="5.22051">
        <ele>1025.86</ele>
        <time>2017-04-23T12:58:09Z</time>
      </trkpt>
      <trkpt lat="44.99991" lon="5.2203">
        <ele>1025.38</ele>
        <time>2017-04-23T12:58:23Z</time>
      </trkpt>
      <trkpt lat="45" lon="5.22018">
        <ele>1023.94</ele>
        <time>2017-04-23T12:58:35Z</time>
      </trkpt>
      <trkpt lat="45.00014" lon="5.21996">
        <ele>1022.02</ele>
        <time>2017-04-23T12:58:50Z</time>
      </trkpt>
      <trkpt lat="45.00015" lon="5.2199">
        <ele>1022.02</ele>
        <time>2017-04-23T12:58:53Z</time>
      </trkpt>
      <trkpt lat="45.00021" lon="5.2196">
        <ele>1019.13</ele>
        <time>2017-04-23T12:59:08Z</time>
      </trkpt>
      <trkpt lat="45.00027" lon="5.21941">
        <ele>1017.21</ele>
        <time>2017-04-23T12:59:20Z</time>
      </trkpt>
      <trkpt lat="45.00026" lon="5.21931">
        <ele>1016.73</ele>
        <time>2017-04-23T12:59:24Z</time>
      </trkpt>
      <trkpt lat="45.00024" lon="5.21899">
        <ele>1013.85</ele>
        <time>2017-04-23T12:59:39Z</time>
      </trkpt>
      <trkpt lat="45.00018" lon="5.21872">
        <ele>1012.41</ele>
        <time>2017-04-23T12:59:53Z</time>
      </trkpt>
      <trkpt lat="45.00012" lon="5.21848">
        <ele>1010.96</ele>
        <time>2017-04-23T13:00:06Z</time>
      </trkpt>
      <trkpt lat="45.00011" lon="5.21842">
        <ele>1010.48</ele>
        <time>2017-04-23T13:00:09Z</time>
      </trkpt>
      <trkpt lat="45.0001" lon="5.21812">
        <ele>1009.52</ele>
        <time>2017-04-23T13:00:24Z</time>
      </trkpt>
      <trkpt lat="45.0001" lon="5.2179">
        <ele>1009.52</ele>
        <time>2017-04-23T13:00:38Z</time>
      </trkpt>
      <trkpt lat="45.00008" lon="5.21763">
        <ele>1008.56</ele>
        <time>2017-04-23T13:00:51Z</time>
      </trkpt>
      <trkpt lat="45.00009" lon="5.2174">
        <ele>1007.12</ele>
        <time>2017-04-23T13:01:05Z</time>
      </trkpt>
      <trkpt lat="45.00009" lon="5.21736">
        <ele>1006.64</ele>
        <time>2017-04-23T13:01:07Z</time>
      </trkpt>
      <trkpt lat="45.00014" lon="5.21715">
        <ele>1004.72</ele>
        <time>2017-04-23T13:01:20Z</time>
      </trkpt>
      <trkpt lat="45.0002" lon="5.21694">
        <ele>1002.79</ele>
        <time>2017-04-23T13:01:32Z</time>
      </trkpt>
      <trkpt lat="45.00026" lon="5.2167">
        <ele>1002.31</ele>
        <time>2017-04-23T13:01:46Z</time>
      </trkpt>
      <trkpt lat="45.00029" lon="5.21646">
        <ele>1001.35</ele>
        <time>2017-04-23T13:02:00Z</time>
      </trkpt>
      <trkpt lat="45.00029" lon="5.21626">
        <ele>1000.39</ele>
        <time>2017-04-23T13:02:11Z</time>
      </trkpt>
      <trkpt lat="45.00021" lon="5.21591">
        <ele>997.51</ele>
        <time>2017-04-23T13:02:28Z</time>
      </trkpt>
      <trkpt lat="45.00011" lon="5.21578">
        <ele>994.14</ele>
        <time>2017-04-23T13:02:39Z</time>
      </trkpt>
      <trkpt lat="44.99998" lon="5.21558">
        <ele>992.22</ele>
        <time>2017-04-23T13:02:55Z</time>
      </trkpt>
      <trkpt lat="44.99987" lon="5.21539">
        <ele>991.74</ele>
        <time>2017-04-23T13:03:10Z</time>
      </trkpt>
      <trkpt lat="44.99974" lon="5.21521">
        <ele>991.26</ele>
        <time>2017-04-23T13:03:23Z</time>
      </trkpt>
      <trkpt lat="44.99957" lon="5.21498">
        <ele>991.26</ele>
        <time>2017-04-23T13:03:38Z</time>
      </trkpt>
      <trkpt lat="44.99951" lon="5.21488">
        <ele>990.78</ele>
        <time>2017-04-23T13:03:58Z</time>
      </trkpt>
      <trkpt lat="44.99949" lon="5.21478">
        <ele>990.3</ele>
        <time>2017-04-23T13:07:22Z</time>
      </trkpt>
      <trkpt lat="44.9995" lon="5.21469">
        <ele>987.41</ele>
        <time>2017-04-23T13:07:30Z</time>
      </trkpt>
      <trkpt lat="44.99949" lon="5.21454">
        <ele>983.57</ele>
        <time>2017-04-23T13:07:44Z</time>
      </trkpt>
      <trkpt lat="44.99948" lon="5.21442">
        <ele>980.68</ele>
        <time>2017-04-23T13:07:55Z</time>
      </trkpt>
      <trkpt lat="44.9995" lon="5.21439">
        <ele>979.24</ele>
        <time>2017-04-23T13:07:58Z</time>
      </trkpt>
      <trkpt lat="44.99948" lon="5.21427">
        <ele>975.88</ele>
        <time>2017-04-23T13:08:06Z</time>
      </trkpt>
      <trkpt lat="44.99945" lon="5.21412">
        <ele>972.51</ele>
        <time>2017-04-23T13:08:16Z</time>
      </trkpt>
      <trkpt lat="44.99944" lon="5.21404">
        <ele>970.59</ele>
        <time>2017-04-23T13:08:22Z</time>
      </trkpt>
      <trkpt lat="44.99945" lon="5.21396">
        <ele>967.22</ele>
        <time>2017-04-23T13:08:29Z</time>
      </trkpt>
      <trkpt lat="44.99944" lon="5.21383">
        <ele>964.34</ele>
        <time>2017-04-23T13:08:38Z</time>
      </trkpt>
      <trkpt lat="44.99944" lon="5.21372">
        <ele>962.42</ele>
        <time>2017-04-23T13:08:45Z</time>
      </trkpt>
      <trkpt lat="44.99942" lon="5.2136">
        <ele>959.53</ele>
        <time>2017-04-23T13:08:56Z</time>
      </trkpt>
      <trkpt lat="44.99938" lon="5.21344">
        <ele>956.17</ele>
        <time>2017-04-23T13:09:06Z</time>
      </trkpt>
      <trkpt lat="44.99936" lon="5.21328">
        <ele>952.8</ele>
        <time>2017-04-23T13:09:14Z</time>
      </trkpt>
      <trkpt lat="44.99932" lon="5.21313">
        <ele>949.92</ele>
        <time>2017-04-23T13:09:23Z</time>
      </trkpt>
      <trkpt lat="44.99927" lon="5.21298">
        <ele>947.04</ele>
        <time>2017-04-23T13:09:34Z</time>
      </trkpt>
      <trkpt lat="44.99931" lon="5.21273">
        <ele>943.67</ele>
        <time>2017-04-23T13:09:49Z</time>
      </trkpt>
      <trkpt lat="44.99931" lon="5.21252">
        <ele>943.19</ele>
        <time>2017-04-23T13:10:03Z</time>
      </trkpt>
      <trkpt lat="44.99932" lon="5.21229">
        <ele>941.75</ele>
        <time>2017-04-23T13:10:18Z</time>
      </trkpt>
      <trkpt lat="44.99937" lon="5.21204">
        <ele>940.79</ele>
        <time>2017-04-23T13:10:34Z</time>
      </trkpt>
      <trkpt lat="44.99944" lon="5.21181">
        <ele>940.31</ele>
        <time>2017-04-23T13:10:50Z</time>
      </trkpt>
      <trkpt lat="44.99951" lon="5.21158">
        <ele>937.9</ele>
        <time>2017-04-23T13:11:05Z</time>
      </trkpt>
      <trkpt lat="44.99954" lon="5.21135">
        <ele>935.98</ele>
        <time>2017-04-23T13:11:19Z</time>
      </trkpt>
      <trkpt lat="44.99956" lon="5.2112">
        <ele>933.1</ele>
        <time>2017-04-23T13:11:29Z</time>
      </trkpt>
      <trkpt lat="44.99955" lon="5.21103">
        <ele>929.73</ele>
        <time>2017-04-23T13:11:40Z</time>
      </trkpt>
      <trkpt lat="44.99952" lon="5.21088">
        <ele>926.37</ele>
        <time>2017-04-23T13:11:51Z</time>
      </trkpt>
      <trkpt lat="44.9995" lon="5.21071">
        <ele>923.48</ele>
        <time>2017-04-23T13:12:05Z</time>
      </trkpt>
      <trkpt lat="44.9995" lon="5.21057">
        <ele>919.64</ele>
        <time>2017-04-23T13:12:16Z</time>
      </trkpt>
      <trkpt lat="44.99948" lon="5.21039">
        <ele>916.75</ele>
        <time>2017-04-23T13:12:30Z</time>
      </trkpt>
      <trkpt lat="44.99945" lon="5.21029">
        <ele>917.24</ele>
        <time>2017-04-23T13:12:48Z</time>
      </trkpt>
      <trkpt lat="44.99953" lon="5.21021">
        <ele>912.91</ele>
        <time>2017-04-23T13:14:20Z</time>
      </trkpt>
      <trkpt lat="44.99948" lon="5.21004">
        <ele>910.99</ele>
        <time>2017-04-23T13:14:35Z</time>
      </trkpt>
      <trkpt lat="44.99944" lon="5.2098">
        <ele>908.1</ele>
        <time>2017-04-23T13:14:50Z</time>
      </trkpt>
      <trkpt lat="44.99943" lon="5.20967">
        <ele>906.66</ele>
        <time>2017-04-23T13:14:57Z</time>
      </trkpt>
      <trkpt lat="44.99944" lon="5.20944">
        <ele>905.7</ele>
        <time>2017-04-23T13:15:10Z</time>
      </trkpt>
      <trkpt lat="44.99944" lon="5.20919">
        <ele>905.22</ele>
        <time>2017-04-23T13:15:23Z</time>
      </trkpt>
      <trkpt lat="44.99945" lon="5.20895">
        <ele>904.26</ele>
        <time>2017-04-23T13:15:36Z</time>
      </trkpt>
      <trkpt lat="44.99944" lon="5.20882">
        <ele>905.7</ele>
        <time>2017-04-23T13:15:44Z</time>
      </trkpt>
      <trkpt lat="44.99938" lon="5.20868">
        <ele>907.62</ele>
        <time>2017-04-23T13:15:57Z</time>
      </trkpt>
      <trkpt lat="44.99928" lon="5.20852">
        <ele>910.51</ele>
        <time>2017-04-23T13:16:11Z</time>
      </trkpt>
      <trkpt lat="44.99917" lon="5.20836">
        <ele>911.95</ele>
        <time>2017-04-23T13:16:26Z</time>
      </trkpt>
      <trkpt lat="44.99916" lon="5.20835">
        <ele>911.95</ele>
        <time>2017-04-23T13:16:27Z</time>
      </trkpt>
      <trkpt lat="44.99898" lon="5.20821">
        <ele>914.35</ele>
        <time>2017-04-23T13:16:40Z</time>
      </trkpt>
      <trkpt lat="44.99881" lon="5.20807">
        <ele>916.27</ele>
        <time>2017-04-23T13:16:55Z</time>
      </trkpt>
      <trkpt lat="44.99863" lon="5.20802">
        <ele>919.16</ele>
        <time>2017-04-23T13:17:11Z</time>
      </trkpt>
      <trkpt lat="44.99858" lon="5.208">
        <ele>919.64</ele>
        <time>2017-04-23T13:17:16Z</time>
      </trkpt>
      <trkpt lat="44.99845" lon="5.20788">
        <ele>921.56</ele>
        <time>2017-04-23T13:17:30Z</time>
      </trkpt>
      <trkpt lat="44.99843" lon="5.2077">
        <ele>923.96</ele>
        <time>2017-04-23T13:17:43Z</time>
      </trkpt>
      <trkpt lat="44.99848" lon="5.20761">
        <ele>923.96</ele>
        <time>2017-04-23T13:17:59Z</time>
      </trkpt>
      <trkpt lat="44.99853" lon="5.20756">
        <ele>923.48</ele>
        <time>2017-04-23T13:18:13Z</time>
      </trkpt>
      <trkpt lat="44.99855" lon="5.20753">
        <ele>922.04</ele>
        <time>2017-04-23T13:18:19Z</time>
      </trkpt>
      <trkpt lat="44.99858" lon="5.20748">
        <ele>922.04</ele>
        <time>2017-04-23T13:18:27Z</time>
      </trkpt>
      <trkpt lat="44.99861" lon="5.2074">
        <ele>920.12</ele>
        <time>2017-04-23T13:18:33Z</time>
      </trkpt>
      <trkpt lat="44.99864" lon="5.20733">
        <ele>918.2</ele>
        <time>2017-04-23T13:18:38Z</time>
      </trkpt>
      <trkpt lat="44.99872" lon="5.20718">
        <ele>915.31</ele>
        <time>2017-04-23T13:18:50Z</time>
      </trkpt>
      <trkpt lat="44.99875" lon="5.20708">
        <ele>912.91</ele>
        <time>2017-04-23T13:18:58Z</time>
      </trkpt>
      <trkpt lat="44.99876" lon="5.20705">
        <ele>911.95</ele>
        <time>2017-04-23T13:19:00Z</time>
      </trkpt>
      <trkpt lat="44.99883" lon="5.20688">
        <ele>908.58</ele>
        <time>2017-04-23T13:19:11Z</time>
      </trkpt>
      <trkpt lat="44.99887" lon="5.20673">
        <ele>905.22</ele>
        <time>2017-04-23T13:19:22Z</time>
      </trkpt>
      <trkpt lat="44.99888" lon="5.20667">
        <ele>903.78</ele>
        <time>2017-04-23T13:19:26Z</time>
      </trkpt>
      <trkpt lat="44.99894" lon="5.20648">
        <ele>900.41</ele>
        <time>2017-04-23T13:19:39Z</time>
      </trkpt>
      <trkpt lat="44.99898" lon="5.20635">
        <ele>898.97</ele>
        <time>2017-04-23T13:19:46Z</time>
      </trkpt>
      <trkpt lat="44.99906" lon="5.20614">
        <ele>897.53</ele>
        <time>2017-04-23T13:19:59Z</time>
      </trkpt>
      <trkpt lat="44.99914" lon="5.20596">
        <ele>895.12</ele>
        <time>2017-04-23T13:20:12Z</time>
      </trkpt>
      <trkpt lat="44.99918" lon="5.20585">
        <ele>894.64</ele>
        <time>2017-04-23T13:20:20Z</time>
      </trkpt>
      <trkpt lat="44.99924" lon="5.20559">
        <ele>891.76</ele>
        <time>2017-04-23T13:20:34Z</time>
      </trkpt>
      <trkpt lat="44.99925" lon="5.20547">
        <ele>889.84</ele>
        <time>2017-04-23T13:20:40Z</time>
      </trkpt>
      <trkpt lat="44.99929" lon="5.20523">
        <ele>886.47</ele>
        <time>2017-04-23T13:20:51Z</time>
      </trkpt>
      <trkpt lat="44.99931" lon="5.20506">
        <ele>883.59</ele>
        <time>2017-04-23T13:21:01Z</time>
      </trkpt>
      <trkpt lat="44.99927" lon="5.20483">
        <ele>879.74</ele>
        <time>2017-04-23T13:21:14Z</time>
      </trkpt>
      <trkpt lat="44.99928" lon="5.2047">
        <ele>876.38</ele>
        <time>2017-04-23T13:21:22Z</time>
      </trkpt>
      <trkpt lat="44.99924" lon="5.20453">
        <ele>873.01</ele>
        <time>2017-04-23T13:21:33Z</time>
      </trkpt>
      <trkpt lat="44.99915" lon="5.20433">
        <ele>869.65</ele>
        <time>2017-04-23T13:21:47Z</time>
      </trkpt>
      <trkpt lat="44.99914" lon="5.20428">
        <ele>869.17</ele>
        <time>2017-04-23T13:22:03Z</time>
      </trkpt>
      <trkpt lat="44.99916" lon="5.20425">
        <ele>868.21</ele>
        <time>2017-04-23T13:22:22Z</time>
      </trkpt>
      <trkpt lat="44.99925" lon="5.20425">
        <ele>866.77</ele>
        <time>2017-04-23T13:22:36Z</time>
      </trkpt>
      <trkpt lat="44.99932" lon="5.20433">
        <ele>863.4</ele>
        <time>2017-04-23T13:22:46Z</time>
      </trkpt>
      <trkpt lat="44.99937" lon="5.2044">
        <ele>861</ele>
        <time>2017-04-23T13:22:54Z</time>
      </trkpt>
      <trkpt lat="44.99947" lon="5.20454">
        <ele>857.15</ele>
        <time>2017-04-23T13:23:06Z</time>
      </trkpt>
      <trkpt lat="44.99959" lon="5.20465">
        <ele>854.75</ele>
        <time>2017-04-23T13:23:17Z</time>
      </trkpt>
      <trkpt lat="44.99969" lon="5.20471">
        <ele>851.87</ele>
        <time>2017-04-23T13:23:27Z</time>
      </trkpt>
      <trkpt lat="44.99984" lon="5.20484">
        <ele>849.94</ele>
        <time>2017-04-23T13:23:41Z</time>
      </trkpt>
      <trkpt lat="44.99996" lon="5.205">
        <ele>849.94</ele>
        <time>2017-04-23T13:23:56Z</time>
      </trkpt>
      <trkpt lat="45.00003" lon="5.20517">
        <ele>846.58</ele>
        <time>2017-04-23T13:24:08Z</time>
      </trkpt>
      <trkpt lat="45.00019" lon="5.20539">
        <ele>844.66</ele>
        <time>2017-04-23T13:24:23Z</time>
      </trkpt>
      <trkpt lat="45.00035" lon="5.20559">
        <ele>842.73</ele>
        <time>2017-04-23T13:24:38Z</time>
      </trkpt>
      <trkpt lat="45.00055" lon="5.20572">
        <ele>842.25</ele>
        <time>2017-04-23T13:24:53Z</time>
      </trkpt>
      <trkpt lat="45.00068" lon="5.20582">
        <ele>842.25</ele>
        <time>2017-04-23T13:25:05Z</time>
      </trkpt>
      <trkpt lat="45.00077" lon="5.20588">
        <ele>840.81</ele>
        <time>2017-04-23T13:25:14Z</time>
      </trkpt>
      <trkpt lat="45.00091" lon="5.206">
        <ele>838.41</ele>
        <time>2017-04-23T13:25:26Z</time>
      </trkpt>
      <trkpt lat="45.001" lon="5.20618">
        <ele>836</ele>
        <time>2017-04-23T13:25:38Z</time>
      </trkpt>
      <trkpt lat="45.00107" lon="5.20638">
        <ele>832.64</ele>
        <time>2017-04-23T13:25:51Z</time>
      </trkpt>
      <trkpt lat="45.0011" lon="5.20652">
        <ele>829.27</ele>
        <time>2017-04-23T13:26:03Z</time>
      </trkpt>
      <trkpt lat="45.00112" lon="5.20665">
        <ele>825.91</ele>
        <time>2017-04-23T13:26:14Z</time>
      </trkpt>
      <trkpt lat="45.00113" lon="5.20677">
        <ele>823.51</ele>
        <time>2017-04-23T13:26:22Z</time>
      </trkpt>
      <trkpt lat="45.00114" lon="5.20691">
        <ele>820.14</ele>
        <time>2017-04-23T13:26:32Z</time>
      </trkpt>
      <trkpt lat="45.00117" lon="5.20706">
        <ele>817.26</ele>
        <time>2017-04-23T13:26:42Z</time>
      </trkpt>
      <trkpt lat="45.00118" lon="5.20718">
        <ele>813.89</ele>
        <time>2017-04-23T13:26:48Z</time>
      </trkpt>
      <trkpt lat="45.00119" lon="5.20723">
        <ele>812.93</ele>
        <time>2017-04-23T13:26:53Z</time>
      </trkpt>
      <trkpt lat="45.00122" lon="5.20741">
        <ele>811.01</ele>
        <time>2017-04-23T13:27:05Z</time>
      </trkpt>
      <trkpt lat="45.00124" lon="5.20756">
        <ele>807.64</ele>
        <time>2017-04-23T13:27:16Z</time>
      </trkpt>
      <trkpt lat="45.00129" lon="5.20778">
        <ele>804.28</ele>
        <time>2017-04-23T13:27:31Z</time>
      </trkpt>
      <trkpt lat="45.00136" lon="5.20797">
        <ele>800.92</ele>
        <time>2017-04-23T13:27:44Z</time>
      </trkpt>
      <trkpt lat="45.00136" lon="5.20809">
        <ele>798.99</ele>
        <time>2017-04-23T13:27:57Z</time>
      </trkpt>
      <trkpt lat="45.00138" lon="5.20818">
        <ele>795.63</ele>
        <time>2017-04-23T13:28:07Z</time>
      </trkpt>
      <trkpt lat="45.00141" lon="5.20817">
        <ele>792.74</ele>
        <time>2017-04-23T13:28:20Z</time>
      </trkpt>
      <trkpt lat="45.00148" lon="5.20804">
        <ele>789.38</ele>
        <time>2017-04-23T13:28:31Z</time>
      </trkpt>
      <trkpt lat="45.00151" lon="5.20793">
        <ele>786.5</ele>
        <time>2017-04-23T13:28:39Z</time>
      </trkpt>
      <trkpt lat="45.00157" lon="5.20777">
        <ele>784.57</ele>
        <time>2017-04-23T13:28:49Z</time>
      </trkpt>
      <trkpt lat="45.00166" lon="5.20757">
        <ele>780.25</ele>
        <time>2017-04-23T13:29:02Z</time>
      </trkpt>
      <trkpt lat="45.00168" lon="5.20752">
        <ele>779.77</ele>
        <time>2017-04-23T13:29:05Z</time>
      </trkpt>
      <trkpt lat="45.00179" lon="5.20732">
        <ele>775.44</ele>
        <time>2017-04-23T13:29:20Z</time>
      </trkpt>
      <trkpt lat="45.00191" lon="5.20721">
        <ele>772.56</ele>
        <time>2017-04-23T13:29:34Z</time>
      </trkpt>
      <trkpt lat="45.00192" lon="5.20728">
        <ele>769.19</ele>
        <time>2017-04-23T13:29:42Z</time>
      </trkpt>
      <trkpt lat="45.00192" lon="5.2074">
        <ele>766.31</ele>
        <time>2017-04-23T13:29:54Z</time>
      </trkpt>
      <trkpt lat="45.00193" lon="5.20752">
        <ele>762.46</ele>
        <time>2017-04-23T13:30:03Z</time>
      </trkpt>
      <trkpt lat="45.00195" lon="5.20767">
        <ele>758.62</ele>
        <time>2017-04-23T13:30:14Z</time>
      </trkpt>
      <trkpt lat="45.00198" lon="5.20785">
        <ele>755.73</ele>
        <time>2017-04-23T13:30:25Z</time>
      </trkpt>
      <trkpt lat="45.002" lon="5.20805">
        <ele>753.81</ele>
        <time>2017-04-23T13:30:36Z</time>
      </trkpt>
      <trkpt lat="45.00203" lon="5.20817">
        <ele>749.97</ele>
        <time>2017-04-23T13:30:48Z</time>
      </trkpt>
      <trkpt lat="45.00205" lon="5.20823">
        <ele>748.04</ele>
        <time>2017-04-23T13:30:53Z</time>
      </trkpt>
      <trkpt lat="45.00206" lon="5.20842">
        <ele>745.16</ele>
        <time>2017-04-23T13:31:06Z</time>
      </trkpt>
      <trkpt lat="45.0021" lon="5.20856">
        <ele>742.76</ele>
        <time>2017-04-23T13:31:15Z</time>
      </trkpt>
      <trkpt lat="45.00213" lon="5.2087">
        <ele>739.87</ele>
        <time>2017-04-23T13:31:27Z</time>
      </trkpt>
      <trkpt lat="45.00213" lon="5.20884">
        <ele>737.47</ele>
        <time>2017-04-23T13:31:35Z</time>
      </trkpt>
      <trkpt lat="45.0021" lon="5.20899">
        <ele>734.1</ele>
        <time>2017-04-23T13:31:46Z</time>
      </trkpt>
      <trkpt lat="45.00216" lon="5.209">
        <ele>731.22</ele>
        <time>2017-04-23T13:31:57Z</time>
      </trkpt>
      <trkpt lat="45.00219" lon="5.20898">
        <ele>730.26</ele>
        <time>2017-04-23T13:32:00Z</time>
      </trkpt>
      <trkpt lat="45.00222" lon="5.20897">
        <ele>729.3</ele>
        <time>2017-04-23T13:32:02Z</time>
      </trkpt>
      <trkpt lat="45.00234" lon="5.20891">
        <ele>727.37</ele>
        <time>2017-04-23T13:32:14Z</time>
      </trkpt>
      <trkpt lat="45.00241" lon="5.20879">
        <ele>724.97</ele>
        <time>2017-04-23T13:32:28Z</time>
      </trkpt>
      <trkpt lat="45.00246" lon="5.20861">
        <ele>722.09</ele>
        <time>2017-04-23T13:32:40Z</time>
      </trkpt>
      <trkpt lat="45.00252" lon="5.20849">
        <ele>719.68</ele>
        <time>2017-04-23T13:32:50Z</time>
      </trkpt>
      <trkpt lat="45.00262" lon="5.2083">
        <ele>717.28</ele>
        <time>2017-04-23T13:33:04Z</time>
      </trkpt>
      <trkpt lat="45.00266" lon="5.20823">
        <ele>715.36</ele>
        <time>2017-04-23T13:33:10Z</time>
      </trkpt>
      <trkpt lat="45.00274" lon="5.20816">
        <ele>712.47</ele>
        <time>2017-04-23T13:33:21Z</time>
      </trkpt>
      <trkpt lat="45.00283" lon="5.2081">
        <ele>709.11</ele>
        <time>2017-04-23T13:33:31Z</time>
      </trkpt>
      <trkpt lat="45.00292" lon="5.20806">
        <ele>705.26</ele>
        <time>2017-04-23T13:33:42Z</time>
      </trkpt>
      <trkpt lat="45.00298" lon="5.20802">
        <ele>702.38</ele>
        <time>2017-04-23T13:33:57Z</time>
      </trkpt>
      <trkpt lat="45.00303" lon="5.20795">
        <ele>701.42</ele>
        <time>2017-04-23T13:34:02Z</time>
      </trkpt>
      <trkpt lat="45.00321" lon="5.20763">
        <ele>698.05</ele>
        <time>2017-04-23T13:34:19Z</time>
      </trkpt>
      <trkpt lat="45.00322" lon="5.2076">
        <ele>697.09</ele>
        <time>2017-04-23T13:34:21Z</time>
      </trkpt>
      <trkpt lat="45.00333" lon="5.20735">
        <ele>693.73</ele>
        <time>2017-04-23T13:34:35Z</time>
      </trkpt>
      <trkpt lat="45.0034" lon="5.20719">
        <ele>691.33</ele>
        <time>2017-04-23T13:34:46Z</time>
      </trkpt>
      <trkpt lat="45.00344" lon="5.20705">
        <ele>689.4</ele>
        <time>2017-04-23T13:34:56Z</time>
      </trkpt>
      <trkpt lat="45.00333" lon="5.20687">
        <ele>688.44</ele>
        <time>2017-04-23T13:38:58Z</time>
      </trkpt>
      <trkpt lat="45.00327" lon="5.20669">
        <ele>686.52</ele>
        <time>2017-04-23T13:39:10Z</time>
      </trkpt>
      <trkpt lat="45.00327" lon="5.20652">
        <ele>683.63</ele>
        <time>2017-04-23T13:39:21Z</time>
      </trkpt>
      <trkpt lat="45.00328" lon="5.20631">
        <ele>682.19</ele>
        <time>2017-04-23T13:39:33Z</time>
      </trkpt>
      <trkpt lat="45.00324" lon="5.20607">
        <ele>680.27</ele>
        <time>2017-04-23T13:39:47Z</time>
      </trkpt>
      <trkpt lat="45.00319" lon="5.20583">
        <ele>678.35</ele>
        <time>2017-04-23T13:40:00Z</time>
      </trkpt>
      <trkpt lat="45.00313" lon="5.20556">
        <ele>675.94</ele>
        <time>2017-04-23T13:40:14Z</time>
      </trkpt>
      <trkpt lat="45.00312" lon="5.20534">
        <ele>673.06</ele>
        <time>2017-04-23T13:40:28Z</time>
      </trkpt>
      <trkpt lat="45.00312" lon="5.20517">
        <ele>670.18</ele>
        <time>2017-04-23T13:40:38Z</time>
      </trkpt>
      <trkpt lat="45.00312" lon="5.20501">
        <ele>667.77</ele>
        <time>2017-04-23T13:40:49Z</time>
      </trkpt>
      <trkpt lat="45.00312" lon="5.2049">
        <ele>666.33</ele>
        <time>2017-04-23T13:40:56Z</time>
      </trkpt>
      <trkpt lat="45.00311" lon="5.2048">
        <ele>665.37</ele>
        <time>2017-04-23T13:41:02Z</time>
      </trkpt>
      <trkpt lat="45.00309" lon="5.20468">
        <ele>664.89</ele>
        <time>2017-04-23T13:41:09Z</time>
      </trkpt>
      <trkpt lat="45.00307" lon="5.20452">
        <ele>663.45</ele>
        <time>2017-04-23T13:41:17Z</time>
      </trkpt>
      <trkpt lat="45.00309" lon="5.20441">
        <ele>662.01</ele>
        <time>2017-04-23T13:41:23Z</time>
      </trkpt>
      <trkpt lat="45.00309" lon="5.20437">
        <ele>662.01</ele>
        <time>2017-04-23T13:41:25Z</time>
      </trkpt>
      <trkpt lat="45.00308" lon="5.2041">
        <ele>659.12</ele>
        <time>2017-04-23T13:41:39Z</time>
      </trkpt>
      <trkpt lat="45.00308" lon="5.20408">
        <ele>659.12</ele>
        <time>2017-04-23T13:41:40Z</time>
      </trkpt>
      <trkpt lat="45.00307" lon="5.20384">
        <ele>657.2</ele>
        <time>2017-04-23T13:41:53Z</time>
      </trkpt>
      <trkpt lat="45.00304" lon="5.20361">
        <ele>655.76</ele>
        <time>2017-04-23T13:42:06Z</time>
      </trkpt>
      <trkpt lat="45.00297" lon="5.20333">
        <ele>654.8</ele>
        <time>2017-04-23T13:42:21Z</time>
      </trkpt>
      <trkpt lat="45.00287" lon="5.20298">
        <ele>652.39</ele>
        <time>2017-04-23T13:42:38Z</time>
      </trkpt>
      <trkpt lat="45.00273" lon="5.20261">
        <ele>650.95</ele>
        <time>2017-04-23T13:42:57Z</time>
      </trkpt>
      <trkpt lat="45.00257" lon="5.2023">
        <ele>649.03</ele>
        <time>2017-04-23T13:43:16Z</time>
      </trkpt>
      <trkpt lat="45.00242" lon="5.202">
        <ele>646.62</ele>
        <time>2017-04-23T13:43:35Z</time>
      </trkpt>
      <trkpt lat="45.00231" lon="5.20181">
        <ele>643.74</ele>
        <time>2017-04-23T13:43:48Z</time>
      </trkpt>
      <trkpt lat="45.00222" lon="5.20155">
        <ele>640.86</ele>
        <time>2017-04-23T13:44:05Z</time>
      </trkpt>
      <trkpt lat="45.00217" lon="5.20134">
        <ele>638.93</ele>
        <time>2017-04-23T13:44:19Z</time>
      </trkpt>
      <trkpt lat="45.00205" lon="5.20102">
        <ele>635.57</ele>
        <time>2017-04-23T13:44:38Z</time>
      </trkpt>
      <trkpt lat="45.00189" lon="5.2007">
        <ele>633.17</ele>
        <time>2017-04-23T13:44:56Z</time>
      </trkpt>
      <trkpt lat="45.00173" lon="5.20032">
        <ele>630.76</ele>
        <time>2017-04-23T13:45:17Z</time>
      </trkpt>
      <trkpt lat="45.00155" lon="5.2001">
        <ele>628.36</ele>
        <time>2017-04-23T13:45:35Z</time>
      </trkpt>
      <trkpt lat="45.00136" lon="5.19993">
        <ele>625.96</ele>
        <time>2017-04-23T13:45:51Z</time>
      </trkpt>
      <trkpt lat="45.00112" lon="5.19976">
        <ele>622.59</ele>
        <time>2017-04-23T13:46:09Z</time>
      </trkpt>
      <trkpt lat="45.00091" lon="5.19965">
        <ele>620.19</ele>
        <time>2017-04-23T13:46:25Z</time>
      </trkpt>
      <trkpt lat="45.00072" lon="5.19958">
        <ele>618.26</ele>
        <time>2017-04-23T13:46:41Z</time>
      </trkpt>
      <trkpt lat="45.00049" lon="5.19947">
        <ele>616.82</ele>
        <time>2017-04-23T13:46:58Z</time>
      </trkpt>
      <trkpt lat="45.00039" lon="5.1994">
        <ele>615.86</ele>
        <time>2017-04-23T13:47:06Z</time>
      </trkpt>
      <trkpt lat="45.00023" lon="5.19933">
        <ele>612.5</ele>
        <time>2017-04-23T13:47:18Z</time>
      </trkpt>
      <trkpt lat="45.00014" lon="5.19931">
        <ele>611.54</ele>
        <time>2017-04-23T13:47:24Z</time>
      </trkpt>
      <trkpt lat="44.99995" lon="5.19932">
        <ele>608.65</ele>
        <time>2017-04-23T13:47:40Z</time>
      </trkpt>
      <trkpt lat="44.99979" lon="5.19932">
        <ele>606.25</ele>
        <time>2017-04-23T13:47:54Z</time>
      </trkpt>
      <trkpt lat="44.99976" lon="5.19932">
        <ele>606.25</ele>
        <time>2017-04-23T13:47:56Z</time>
      </trkpt>
      <trkpt lat="44.99964" lon="5.19932">
        <ele>604.81</ele>
        <time>2017-04-23T13:48:05Z</time>
      </trkpt>
      <trkpt lat="44.9996" lon="5.19933">
        <ele>603.85</ele>
        <time>2017-04-23T13:48:08Z</time>
      </trkpt>
      <trkpt lat="44.99942" lon="5.19927">
        <ele>600.48</ele>
        <time>2017-04-23T13:48:24Z</time>
      </trkpt>
      <trkpt lat="44.99923" lon="5.19922">
        <ele>598.08</ele>
        <time>2017-04-23T13:48:38Z</time>
      </trkpt>
      <trkpt lat="44.99911" lon="5.19924">
        <ele>596.64</ele>
        <time>2017-04-23T13:48:47Z</time>
      </trkpt>
      <trkpt lat="44.99884" lon="5.19931">
        <ele>593.27</ele>
        <time>2017-04-23T13:49:06Z</time>
      </trkpt>
      <trkpt lat="44.9987" lon="5.19935">
        <ele>591.83</ele>
        <time>2017-04-23T13:49:22Z</time>
      </trkpt>
      <trkpt lat="44.99865" lon="5.19935">
        <ele>590.87</ele>
        <time>2017-04-23T13:49:26Z</time>
      </trkpt>
      <trkpt lat="44.99854" lon="5.19934">
        <ele>588.95</ele>
        <time>2017-04-23T13:49:41Z</time>
      </trkpt>
      <trkpt lat="44.99846" lon="5.19931">
        <ele>587.98</ele>
        <time>2017-04-23T13:49:54Z</time>
      </trkpt>
      <trkpt lat="44.99828" lon="5.19927">
        <ele>584.62</ele>
        <time>2017-04-23T13:50:08Z</time>
      </trkpt>
      <trkpt lat="44.99812" lon="5.19918">
        <ele>582.7</ele>
        <time>2017-04-23T13:50:20Z</time>
      </trkpt>
      <trkpt lat="44.99802" lon="5.19914">
        <ele>580.29</ele>
        <time>2017-04-23T13:50:29Z</time>
      </trkpt>
      <trkpt lat="44.99793" lon="5.19908">
        <ele>579.33</ele>
        <time>2017-04-23T13:50:38Z</time>
      </trkpt>
      <trkpt lat="44.99786" lon="5.19901">
        <ele>578.85</ele>
        <time>2017-04-23T13:50:44Z</time>
      </trkpt>
      <trkpt lat="44.99767" lon="5.19882">
        <ele>575.49</ele>
        <time>2017-04-23T13:51:01Z</time>
      </trkpt>
      <trkpt lat="44.99749" lon="5.19871">
        <ele>572.6</ele>
        <time>2017-04-23T13:51:16Z</time>
      </trkpt>
      <trkpt lat="44.99731" lon="5.19863">
        <ele>570.68</ele>
        <time>2017-04-23T13:51:31Z</time>
      </trkpt>
      <trkpt lat="44.99712" lon="5.19853">
        <ele>566.83</ele>
        <time>2017-04-23T13:51:47Z</time>
      </trkpt>
      <trkpt lat="44.99702" lon="5.19845">
        <ele>564.91</ele>
        <time>2017-04-23T13:51:54Z</time>
      </trkpt>
      <trkpt lat="44.99697" lon="5.19841">
        <ele>566.35</ele>
        <time>2017-04-23T13:51:58Z</time>
      </trkpt>
      <trkpt lat="44.99694" lon="5.19839">
        <ele>564.91</ele>
        <time>2017-04-23T13:52:00Z</time>
      </trkpt>
      <trkpt lat="44.9967" lon="5.1982">
        <ele>561.55</ele>
        <time>2017-04-23T13:52:18Z</time>
      </trkpt>
      <trkpt lat="44.99665" lon="5.19817">
        <ele>560.59</ele>
        <time>2017-04-23T13:52:22Z</time>
      </trkpt>
      <trkpt lat="44.99641" lon="5.19796">
        <ele>559.62</ele>
        <time>2017-04-23T13:52:40Z</time>
      </trkpt>
      <trkpt lat="44.99637" lon="5.19792">
        <ele>556.74</ele>
        <time>2017-04-23T13:52:44Z</time>
      </trkpt>
      <trkpt lat="44.99618" lon="5.19772">
        <ele>553.38</ele>
        <time>2017-04-23T13:53:00Z</time>
      </trkpt>
      <trkpt lat="44.99601" lon="5.19751">
        <ele>551.93</ele>
        <time>2017-04-23T13:53:17Z</time>
      </trkpt>
      <trkpt lat="44.99581" lon="5.19729">
        <ele>548.57</ele>
        <time>2017-04-23T13:53:34Z</time>
      </trkpt>
      <trkpt lat="44.99561" lon="5.19704">
        <ele>546.17</ele>
        <time>2017-04-23T13:53:53Z</time>
      </trkpt>
      <trkpt lat="44.99543" lon="5.19683">
        <ele>543.28</ele>
        <time>2017-04-23T13:54:10Z</time>
      </trkpt>
      <trkpt lat="44.99525" lon="5.19658">
        <ele>541.36</ele>
        <time>2017-04-23T13:54:29Z</time>
      </trkpt>
      <trkpt lat="44.9951" lon="5.19644">
        <ele>539.44</ele>
        <time>2017-04-23T13:54:44Z</time>
      </trkpt>
      <trkpt lat="44.99488" lon="5.19635">
        <ele>537.51</ele>
        <time>2017-04-23T13:55:04Z</time>
      </trkpt>
      <trkpt lat="44.99468" lon="5.19637">
        <ele>534.15</ele>
        <time>2017-04-23T13:55:20Z</time>
      </trkpt>
      <trkpt lat="44.99462" lon="5.1964">
        <ele>532.71</ele>
        <time>2017-04-23T13:55:31Z</time>
      </trkpt>
      <trkpt lat="44.99448" lon="5.1966">
        <ele>530.3</ele>
        <time>2017-04-23T13:55:47Z</time>
      </trkpt>
      <trkpt lat="44.99445" lon="5.19669">
        <ele>529.34</ele>
        <time>2017-04-23T13:55:52Z</time>
      </trkpt>
      <trkpt lat="44.99439" lon="5.1968">
        <ele>528.38</ele>
        <time>2017-04-23T13:55:59Z</time>
      </trkpt>
      <trkpt lat="44.99418" lon="5.19701">
        <ele>525.5</ele>
        <time>2017-04-23T13:56:18Z</time>
      </trkpt>
      <trkpt lat="44.99391" lon="5.19714">
        <ele>522.13</ele>
        <time>2017-04-23T13:56:38Z</time>
      </trkpt>
      <trkpt lat="44.99367" lon="5.19723">
        <ele>518.77</ele>
        <time>2017-04-23T13:56:57Z</time>
      </trkpt>
      <trkpt lat="44.99344" lon="5.19736">
        <ele>515.4</ele>
        <time>2017-04-23T13:57:15Z</time>
      </trkpt>
      <trkpt lat="44.99324" lon="5.19749">
        <ele>512.52</ele>
        <time>2017-04-23T13:57:29Z</time>
      </trkpt>
      <trkpt lat="44.99307" lon="5.19762">
        <ele>510.12</ele>
        <time>2017-04-23T13:57:43Z</time>
      </trkpt>
      <trkpt lat="44.99286" lon="5.1977">
        <ele>507.71</ele>
        <time>2017-04-23T13:57:59Z</time>
      </trkpt>
      <trkpt lat="44.99268" lon="5.19779">
        <ele>504.83</ele>
        <time>2017-04-23T13:58:14Z</time>
      </trkpt>
      <trkpt lat="44.99255" lon="5.19786">
        <ele>502.43</ele>
        <time>2017-04-23T13:58:30Z</time>
      </trkpt>
      <trkpt lat="44.99249" lon="5.19792">
        <ele>501.46</ele>
        <time>2017-04-23T13:58:36Z</time>
      </trkpt>
      <trkpt lat="44.99226" lon="5.19803">
        <ele>499.54</ele>
        <time>2017-04-23T13:58:54Z</time>
      </trkpt>
      <trkpt lat="44.99207" lon="5.19808">
        <ele>497.62</ele>
        <time>2017-04-23T13:59:08Z</time>
      </trkpt>
      <trkpt lat="44.99194" lon="5.19809">
        <ele>496.18</ele>
        <time>2017-04-23T13:59:19Z</time>
      </trkpt>
      <trkpt lat="44.99172" lon="5.19809">
        <ele>493.77</ele>
        <time>2017-04-23T13:59:35Z</time>
      </trkpt>
      <trkpt lat="44.99164" lon="5.19816">
        <ele>493.29</ele>
        <time>2017-04-23T13:59:44Z</time>
      </trkpt>
      <trkpt lat="44.99162" lon="5.19818">
        <ele>493.29</ele>
        <time>2017-04-23T13:59:46Z</time>
      </trkpt>
      <trkpt lat="44.99157" lon="5.19826">
        <ele>493.29</ele>
        <time>2017-04-23T13:59:52Z</time>
      </trkpt>
      <trkpt lat="44.99153" lon="5.19849">
        <ele>495.7</ele>
        <time>2017-04-23T14:00:08Z</time>
      </trkpt>
      <trkpt lat="44.99161" lon="5.19868">
        <ele>497.62</ele>
        <time>2017-04-23T14:00:23Z</time>
      </trkpt>
      <trkpt lat="44.99163" lon="5.19881">
        <ele>495.7</ele>
        <time>2017-04-23T14:05:01Z</time>
      </trkpt>
    </trkseg>
  </trk>
</gpx>